<?xml version="1.0" encoding="UTF-8" standalone="no" ?>
<gpx xmlns="http://www.topografix.com/GPX/1/1" xmlns:xsi="http://www.w3.org/2001/XMLSchema-instance" xsi:schemaLocation="http://www.topografix.com/GPX/1/1 http://www.topografix.com/GPX/1/1/gpx.xsd" version="1.1" creator="VisuGPX - https://www.visugpx.com">
  <metadata>
    <name>CHENOVE Marche du mardi 21 aout 2012</name>
    <desc><![CDATA[Marche libre avec Fransesco]]></desc>
  </metadata>
  <trk>
    <name><![CDATA[CHENOVE Marche du mardi 21 aout 2012_1]]></name>
    <trkseg>
      <trkpt lat="47.29222" lon="5.00618">
        <ele>304.697</ele>
        <time>2011-01-01T12:02:44Z</time>
      </trkpt>
      <trkpt lat="47.29225" lon="5.00602">
        <ele>238.722</ele>
        <time>2012-08-21T07:34:35Z</time>
      </trkpt>
      <trkpt lat="47.29233" lon="5.00588">
        <ele>233.707</ele>
        <time>2012-08-21T07:34:46Z</time>
      </trkpt>
      <trkpt lat="47.29237" lon="5.00567">
        <ele>261.722</ele>
        <time>2012-08-21T07:34:57Z</time>
      </trkpt>
      <trkpt lat="47.29252" lon="5.00565">
        <ele>262.063</ele>
        <time>2012-08-21T07:35:08Z</time>
      </trkpt>
      <trkpt lat="47.29258" lon="5.00562">
        <ele>266.684</ele>
        <time>2012-08-21T07:35:19Z</time>
      </trkpt>
      <trkpt lat="47.29262" lon="5.00555">
        <ele>274.586</ele>
        <time>2012-08-21T07:35:30Z</time>
      </trkpt>
      <trkpt lat="47.29265" lon="5.00543">
        <ele>277.403</ele>
        <time>2012-08-21T07:35:41Z</time>
      </trkpt>
      <trkpt lat="47.2927" lon="5.00513">
        <ele>269.648</ele>
        <time>2012-08-21T07:35:52Z</time>
      </trkpt>
      <trkpt lat="47.29277" lon="5.00485">
        <ele>256.111</ele>
        <time>2012-08-21T07:36:03Z</time>
      </trkpt>
      <trkpt lat="47.29282" lon="5.00467">
        <ele>257.653</ele>
        <time>2012-08-21T07:36:14Z</time>
      </trkpt>
      <trkpt lat="47.29283" lon="5.00452">
        <ele>256.504</ele>
        <time>2012-08-21T07:36:25Z</time>
      </trkpt>
      <trkpt lat="47.29278" lon="5.00437">
        <ele>253.649</ele>
        <time>2012-08-21T07:36:36Z</time>
      </trkpt>
      <trkpt lat="47.2929" lon="5.00438">
        <ele>255.105</ele>
        <time>2012-08-21T07:36:47Z</time>
      </trkpt>
      <trkpt lat="47.29297" lon="5.00442">
        <ele>256.138</ele>
        <time>2012-08-21T07:36:58Z</time>
      </trkpt>
      <trkpt lat="47.293" lon="5.00445">
        <ele>256.634</ele>
        <time>2012-08-21T07:37:09Z</time>
      </trkpt>
      <trkpt lat="47.29307" lon="5.00458">
        <ele>257.991</ele>
        <time>2012-08-21T07:37:20Z</time>
      </trkpt>
      <trkpt lat="47.29315" lon="5.00462">
        <ele>262.303</ele>
        <time>2012-08-21T07:37:31Z</time>
      </trkpt>
      <trkpt lat="47.29333" lon="5.00468">
        <ele>257.447</ele>
        <time>2012-08-21T07:37:42Z</time>
      </trkpt>
      <trkpt lat="47.29358" lon="5.00462">
        <ele>252.969</ele>
        <time>2012-08-21T07:37:53Z</time>
      </trkpt>
      <trkpt lat="47.29365" lon="5.00457">
        <ele>250.406</ele>
        <time>2012-08-21T07:38:04Z</time>
      </trkpt>
      <trkpt lat="47.29372" lon="5.00445">
        <ele>249.462</ele>
        <time>2012-08-21T07:38:15Z</time>
      </trkpt>
      <trkpt lat="47.29398" lon="5.00447">
        <ele>250.536</ele>
        <time>2012-08-21T07:38:26Z</time>
      </trkpt>
      <trkpt lat="47.29412" lon="5.00458">
        <ele>250.153</ele>
        <time>2012-08-21T07:38:37Z</time>
      </trkpt>
      <trkpt lat="47.2943" lon="5.00463">
        <ele>250.661</ele>
        <time>2012-08-21T07:38:48Z</time>
      </trkpt>
      <trkpt lat="47.29442" lon="5.0046">
        <ele>252.976</ele>
        <time>2012-08-21T07:38:59Z</time>
      </trkpt>
      <trkpt lat="47.29452" lon="5.00448">
        <ele>256.344</ele>
        <time>2012-08-21T07:39:10Z</time>
      </trkpt>
      <trkpt lat="47.29455" lon="5.00445">
        <ele>259.456</ele>
        <time>2012-08-21T07:39:21Z</time>
      </trkpt>
      <trkpt lat="47.29458" lon="5.00437">
        <ele>261.955</ele>
        <time>2012-08-21T07:39:32Z</time>
      </trkpt>
      <trkpt lat="47.29463" lon="5.0043">
        <ele>269.738</ele>
        <time>2012-08-21T07:39:43Z</time>
      </trkpt>
      <trkpt lat="47.29463" lon="5.0043">
        <ele>270.629</ele>
        <time>2012-08-21T07:39:54Z</time>
      </trkpt>
      <trkpt lat="47.29463" lon="5.00428">
        <ele>269.838</ele>
        <time>2012-08-21T07:40:05Z</time>
      </trkpt>
      <trkpt lat="47.29465" lon="5.00427">
        <ele>270.455</ele>
        <time>2012-08-21T07:40:16Z</time>
      </trkpt>
      <trkpt lat="47.29468" lon="5.00423">
        <ele>273.032</ele>
        <time>2012-08-21T07:40:27Z</time>
      </trkpt>
      <trkpt lat="47.29475" lon="5.00395">
        <ele>275.175</ele>
        <time>2012-08-21T07:40:38Z</time>
      </trkpt>
      <trkpt lat="47.2948" lon="5.00372">
        <ele>273.077</ele>
        <time>2012-08-21T07:40:49Z</time>
      </trkpt>
      <trkpt lat="47.29483" lon="5.00358">
        <ele>273.718</ele>
        <time>2012-08-21T07:41:00Z</time>
      </trkpt>
      <trkpt lat="47.2949" lon="5.00338">
        <ele>273.569</ele>
        <time>2012-08-21T07:41:11Z</time>
      </trkpt>
      <trkpt lat="47.29498" lon="5.00307">
        <ele>267.067</ele>
        <time>2012-08-21T07:41:22Z</time>
      </trkpt>
      <trkpt lat="47.29503" lon="5.00285">
        <ele>265.933</ele>
        <time>2012-08-21T07:41:33Z</time>
      </trkpt>
      <trkpt lat="47.29508" lon="5.00267">
        <ele>267.821</ele>
        <time>2012-08-21T07:41:44Z</time>
      </trkpt>
      <trkpt lat="47.29517" lon="5.0025">
        <ele>270.8</ele>
        <time>2012-08-21T07:41:55Z</time>
      </trkpt>
      <trkpt lat="47.29525" lon="5.0023">
        <ele>263.808</ele>
        <time>2012-08-21T07:42:06Z</time>
      </trkpt>
      <trkpt lat="47.29538" lon="5.00215">
        <ele>260.286</ele>
        <time>2012-08-21T07:42:17Z</time>
      </trkpt>
      <trkpt lat="47.29552" lon="5.00197">
        <ele>257.54</ele>
        <time>2012-08-21T07:42:28Z</time>
      </trkpt>
      <trkpt lat="47.2956" lon="5.00183">
        <ele>259.426</ele>
        <time>2012-08-21T07:42:39Z</time>
      </trkpt>
      <trkpt lat="47.2957" lon="5.0017">
        <ele>261.126</ele>
        <time>2012-08-21T07:42:50Z</time>
      </trkpt>
      <trkpt lat="47.29578" lon="5.00152">
        <ele>262.161</ele>
        <time>2012-08-21T07:43:01Z</time>
      </trkpt>
      <trkpt lat="47.29585" lon="5.00132">
        <ele>259.381</ele>
        <time>2012-08-21T07:43:12Z</time>
      </trkpt>
      <trkpt lat="47.2959" lon="5.00122">
        <ele>262.257</ele>
        <time>2012-08-21T07:43:23Z</time>
      </trkpt>
      <trkpt lat="47.29595" lon="5.00107">
        <ele>259.837</ele>
        <time>2012-08-21T07:43:34Z</time>
      </trkpt>
      <trkpt lat="47.296" lon="5.00093">
        <ele>257.886</ele>
        <time>2012-08-21T07:43:45Z</time>
      </trkpt>
      <trkpt lat="47.29605" lon="5.00078">
        <ele>257.789</ele>
        <time>2012-08-21T07:43:56Z</time>
      </trkpt>
      <trkpt lat="47.29612" lon="5.0006">
        <ele>261.226</ele>
        <time>2012-08-21T07:44:07Z</time>
      </trkpt>
      <trkpt lat="47.29617" lon="5.00048">
        <ele>262.249</ele>
        <time>2012-08-21T07:44:18Z</time>
      </trkpt>
      <trkpt lat="47.2962" lon="5.00033">
        <ele>265.773</ele>
        <time>2012-08-21T07:44:29Z</time>
      </trkpt>
      <trkpt lat="47.29625" lon="5.00022">
        <ele>269.507</ele>
        <time>2012-08-21T07:44:40Z</time>
      </trkpt>
      <trkpt lat="47.29622" lon="5.00007">
        <ele>269.505</ele>
        <time>2012-08-21T07:44:51Z</time>
      </trkpt>
      <trkpt lat="47.29615" lon="4.99988">
        <ele>268.732</ele>
        <time>2012-08-21T07:45:02Z</time>
      </trkpt>
      <trkpt lat="47.29608" lon="4.99972">
        <ele>270.394</ele>
        <time>2012-08-21T07:45:13Z</time>
      </trkpt>
      <trkpt lat="47.296" lon="4.9995">
        <ele>268.989</ele>
        <time>2012-08-21T07:45:24Z</time>
      </trkpt>
      <trkpt lat="47.2959" lon="4.99935">
        <ele>268.486</ele>
        <time>2012-08-21T07:45:35Z</time>
      </trkpt>
      <trkpt lat="47.29583" lon="4.99925">
        <ele>267.061</ele>
        <time>2012-08-21T07:45:46Z</time>
      </trkpt>
      <trkpt lat="47.29572" lon="4.99918">
        <ele>268.588</ele>
        <time>2012-08-21T07:45:57Z</time>
      </trkpt>
      <trkpt lat="47.29558" lon="4.99913">
        <ele>273.621</ele>
        <time>2012-08-21T07:46:08Z</time>
      </trkpt>
      <trkpt lat="47.29545" lon="4.99907">
        <ele>275.643</ele>
        <time>2012-08-21T07:46:19Z</time>
      </trkpt>
      <trkpt lat="47.29535" lon="4.99895">
        <ele>275.877</ele>
        <time>2012-08-21T07:46:30Z</time>
      </trkpt>
      <trkpt lat="47.29522" lon="4.99882">
        <ele>276.908</ele>
        <time>2012-08-21T07:46:41Z</time>
      </trkpt>
      <trkpt lat="47.29517" lon="4.99878">
        <ele>277.767</ele>
        <time>2012-08-21T07:46:52Z</time>
      </trkpt>
      <trkpt lat="47.29503" lon="4.99867">
        <ele>284.999</ele>
        <time>2012-08-21T07:47:03Z</time>
      </trkpt>
      <trkpt lat="47.29503" lon="4.99858">
        <ele>288.94</ele>
        <time>2012-08-21T07:47:14Z</time>
      </trkpt>
      <trkpt lat="47.29502" lon="4.99858">
        <ele>289.31</ele>
        <time>2012-08-21T07:47:25Z</time>
      </trkpt>
      <trkpt lat="47.29497" lon="4.99845">
        <ele>291.21</ele>
        <time>2012-08-21T07:47:36Z</time>
      </trkpt>
      <trkpt lat="47.29492" lon="4.99833">
        <ele>288.847</ele>
        <time>2012-08-21T07:47:47Z</time>
      </trkpt>
      <trkpt lat="47.29492" lon="4.99827">
        <ele>288.295</ele>
        <time>2012-08-21T07:47:58Z</time>
      </trkpt>
      <trkpt lat="47.29495" lon="4.99818">
        <ele>290.438</ele>
        <time>2012-08-21T07:48:09Z</time>
      </trkpt>
      <trkpt lat="47.29495" lon="4.99815">
        <ele>291.398</ele>
        <time>2012-08-21T07:48:20Z</time>
      </trkpt>
      <trkpt lat="47.29495" lon="4.99812">
        <ele>292.045</ele>
        <time>2012-08-21T07:48:31Z</time>
      </trkpt>
      <trkpt lat="47.29495" lon="4.998">
        <ele>291.369</ele>
        <time>2012-08-21T07:48:42Z</time>
      </trkpt>
      <trkpt lat="47.29495" lon="4.99798">
        <ele>290.316</ele>
        <time>2012-08-21T07:48:53Z</time>
      </trkpt>
      <trkpt lat="47.29498" lon="4.99777">
        <ele>293.596</ele>
        <time>2012-08-21T07:49:04Z</time>
      </trkpt>
      <trkpt lat="47.29508" lon="4.9976">
        <ele>292.133</ele>
        <time>2012-08-21T07:49:15Z</time>
      </trkpt>
      <trkpt lat="47.29513" lon="4.9975">
        <ele>289.945</ele>
        <time>2012-08-21T07:49:26Z</time>
      </trkpt>
      <trkpt lat="47.29523" lon="4.99737">
        <ele>287.443</ele>
        <time>2012-08-21T07:49:37Z</time>
      </trkpt>
      <trkpt lat="47.29537" lon="4.99723">
        <ele>285.255</ele>
        <time>2012-08-21T07:49:48Z</time>
      </trkpt>
      <trkpt lat="47.2954" lon="4.99713">
        <ele>285.636</ele>
        <time>2012-08-21T07:49:59Z</time>
      </trkpt>
      <trkpt lat="47.29548" lon="4.99712">
        <ele>283.627</ele>
        <time>2012-08-21T07:50:10Z</time>
      </trkpt>
      <trkpt lat="47.29553" lon="4.9971">
        <ele>283.724</ele>
        <time>2012-08-21T07:50:21Z</time>
      </trkpt>
      <trkpt lat="47.29567" lon="4.99717">
        <ele>281.904</ele>
        <time>2012-08-21T07:50:32Z</time>
      </trkpt>
      <trkpt lat="47.29577" lon="4.99718">
        <ele>282.713</ele>
        <time>2012-08-21T07:50:43Z</time>
      </trkpt>
      <trkpt lat="47.29588" lon="4.9972">
        <ele>285.867</ele>
        <time>2012-08-21T07:50:54Z</time>
      </trkpt>
      <trkpt lat="47.2961" lon="4.99727">
        <ele>285.04</ele>
        <time>2012-08-21T07:51:05Z</time>
      </trkpt>
      <trkpt lat="47.29618" lon="4.99728">
        <ele>287.32</ele>
        <time>2012-08-21T07:51:16Z</time>
      </trkpt>
      <trkpt lat="47.29627" lon="4.99728">
        <ele>286.884</ele>
        <time>2012-08-21T07:51:27Z</time>
      </trkpt>
      <trkpt lat="47.29638" lon="4.99732">
        <ele>284.44</ele>
        <time>2012-08-21T07:51:38Z</time>
      </trkpt>
      <trkpt lat="47.29652" lon="4.99737">
        <ele>283.207</ele>
        <time>2012-08-21T07:51:49Z</time>
      </trkpt>
      <trkpt lat="47.29665" lon="4.99738">
        <ele>282.159</ele>
        <time>2012-08-21T07:52:00Z</time>
      </trkpt>
      <trkpt lat="47.29678" lon="4.99742">
        <ele>284.107</ele>
        <time>2012-08-21T07:52:11Z</time>
      </trkpt>
      <trkpt lat="47.2969" lon="4.99748">
        <ele>286.983</ele>
        <time>2012-08-21T07:52:22Z</time>
      </trkpt>
      <trkpt lat="47.29702" lon="4.99748">
        <ele>288.927</ele>
        <time>2012-08-21T07:52:33Z</time>
      </trkpt>
      <trkpt lat="47.29708" lon="4.99753">
        <ele>289.884</ele>
        <time>2012-08-21T07:52:44Z</time>
      </trkpt>
      <trkpt lat="47.29732" lon="4.99763">
        <ele>287.409</ele>
        <time>2012-08-21T07:52:55Z</time>
      </trkpt>
      <trkpt lat="47.2976" lon="4.99777">
        <ele>289.13</ele>
        <time>2012-08-21T07:53:06Z</time>
      </trkpt>
      <trkpt lat="47.29777" lon="4.9978">
        <ele>290.033</ele>
        <time>2012-08-21T07:53:17Z</time>
      </trkpt>
      <trkpt lat="47.2979" lon="4.9977">
        <ele>283.936</ele>
        <time>2012-08-21T07:53:28Z</time>
      </trkpt>
      <trkpt lat="47.298" lon="4.99772">
        <ele>284.06</ele>
        <time>2012-08-21T07:53:39Z</time>
      </trkpt>
      <trkpt lat="47.2981" lon="4.99772">
        <ele>284.391</ele>
        <time>2012-08-21T07:53:50Z</time>
      </trkpt>
      <trkpt lat="47.29828" lon="4.99772">
        <ele>285.884</ele>
        <time>2012-08-21T07:54:01Z</time>
      </trkpt>
      <trkpt lat="47.29842" lon="4.99773">
        <ele>286.641</ele>
        <time>2012-08-21T07:54:12Z</time>
      </trkpt>
      <trkpt lat="47.29853" lon="4.99777">
        <ele>298.775</ele>
        <time>2012-08-21T07:54:23Z</time>
      </trkpt>
      <trkpt lat="47.29867" lon="4.99777">
        <ele>324.524</ele>
        <time>2012-08-21T07:54:34Z</time>
      </trkpt>
      <trkpt lat="47.29875" lon="4.99767">
        <ele>323.842</ele>
        <time>2012-08-21T07:54:45Z</time>
      </trkpt>
      <trkpt lat="47.29892" lon="4.99758">
        <ele>333.091</ele>
        <time>2012-08-21T07:54:56Z</time>
      </trkpt>
      <trkpt lat="47.29903" lon="4.9975">
        <ele>340.798</ele>
        <time>2012-08-21T07:55:07Z</time>
      </trkpt>
      <trkpt lat="47.29915" lon="4.99743">
        <ele>346.153</ele>
        <time>2012-08-21T07:55:18Z</time>
      </trkpt>
      <trkpt lat="47.29925" lon="4.9973">
        <ele>348.679</ele>
        <time>2012-08-21T07:55:29Z</time>
      </trkpt>
      <trkpt lat="47.2993" lon="4.9972">
        <ele>352.76</ele>
        <time>2012-08-21T07:55:40Z</time>
      </trkpt>
      <trkpt lat="47.2994" lon="4.99702">
        <ele>343.25</ele>
        <time>2012-08-21T07:55:51Z</time>
      </trkpt>
      <trkpt lat="47.2995" lon="4.99688">
        <ele>343.231</ele>
        <time>2012-08-21T07:56:02Z</time>
      </trkpt>
      <trkpt lat="47.29957" lon="4.9968">
        <ele>348.785</ele>
        <time>2012-08-21T07:56:13Z</time>
      </trkpt>
      <trkpt lat="47.29962" lon="4.9967">
        <ele>349.454</ele>
        <time>2012-08-21T07:56:24Z</time>
      </trkpt>
      <trkpt lat="47.29977" lon="4.99655">
        <ele>347.804</ele>
        <time>2012-08-21T07:56:35Z</time>
      </trkpt>
      <trkpt lat="47.29987" lon="4.99642">
        <ele>348.443</ele>
        <time>2012-08-21T07:56:46Z</time>
      </trkpt>
      <trkpt lat="47.29995" lon="4.99632">
        <ele>349.81</ele>
        <time>2012-08-21T07:56:57Z</time>
      </trkpt>
      <trkpt lat="47.29998" lon="4.99623">
        <ele>350.709</ele>
        <time>2012-08-21T07:57:08Z</time>
      </trkpt>
      <trkpt lat="47.30002" lon="4.9962">
        <ele>354.556</ele>
        <time>2012-08-21T07:57:19Z</time>
      </trkpt>
      <trkpt lat="47.30005" lon="4.99603">
        <ele>358.302</ele>
        <time>2012-08-21T07:57:30Z</time>
      </trkpt>
      <trkpt lat="47.30012" lon="4.99582">
        <ele>359.885</ele>
        <time>2012-08-21T07:57:41Z</time>
      </trkpt>
      <trkpt lat="47.30017" lon="4.9957">
        <ele>366.795</ele>
        <time>2012-08-21T07:57:52Z</time>
      </trkpt>
      <trkpt lat="47.30018" lon="4.99562">
        <ele>372.088</ele>
        <time>2012-08-21T07:58:03Z</time>
      </trkpt>
      <trkpt lat="47.30023" lon="4.9954">
        <ele>368.548</ele>
        <time>2012-08-21T07:58:14Z</time>
      </trkpt>
      <trkpt lat="47.30027" lon="4.99525">
        <ele>368.04</ele>
        <time>2012-08-21T07:58:25Z</time>
      </trkpt>
      <trkpt lat="47.30033" lon="4.99508">
        <ele>364.63</ele>
        <time>2012-08-21T07:58:36Z</time>
      </trkpt>
      <trkpt lat="47.30042" lon="4.9949">
        <ele>367.167</ele>
        <time>2012-08-21T07:58:47Z</time>
      </trkpt>
      <trkpt lat="47.30047" lon="4.99477">
        <ele>372.342</ele>
        <time>2012-08-21T07:58:58Z</time>
      </trkpt>
      <trkpt lat="47.30053" lon="4.99463">
        <ele>379.295</ele>
        <time>2012-08-21T07:59:09Z</time>
      </trkpt>
      <trkpt lat="47.30055" lon="4.99442">
        <ele>377.423</ele>
        <time>2012-08-21T07:59:20Z</time>
      </trkpt>
      <trkpt lat="47.3006" lon="4.99425">
        <ele>383.02</ele>
        <time>2012-08-21T07:59:31Z</time>
      </trkpt>
      <trkpt lat="47.30063" lon="4.99407">
        <ele>384.905</ele>
        <time>2012-08-21T07:59:42Z</time>
      </trkpt>
      <trkpt lat="47.30065" lon="4.99385">
        <ele>386.193</ele>
        <time>2012-08-21T07:59:53Z</time>
      </trkpt>
      <trkpt lat="47.30072" lon="4.99367">
        <ele>390.663</ele>
        <time>2012-08-21T08:00:04Z</time>
      </trkpt>
      <trkpt lat="47.30067" lon="4.99348">
        <ele>392.869</ele>
        <time>2012-08-21T08:00:15Z</time>
      </trkpt>
      <trkpt lat="47.30058" lon="4.99328">
        <ele>393.292</ele>
        <time>2012-08-21T08:00:26Z</time>
      </trkpt>
      <trkpt lat="47.30055" lon="4.99322">
        <ele>390.169</ele>
        <time>2012-08-21T08:00:37Z</time>
      </trkpt>
      <trkpt lat="47.30048" lon="4.99322">
        <ele>392.442</ele>
        <time>2012-08-21T08:00:48Z</time>
      </trkpt>
      <trkpt lat="47.30033" lon="4.99317">
        <ele>394.89</ele>
        <time>2012-08-21T08:00:59Z</time>
      </trkpt>
      <trkpt lat="47.30017" lon="4.9931">
        <ele>397.015</ele>
        <time>2012-08-21T08:01:10Z</time>
      </trkpt>
      <trkpt lat="47.3" lon="4.99302">
        <ele>402.236</ele>
        <time>2012-08-21T08:01:21Z</time>
      </trkpt>
      <trkpt lat="47.2999" lon="4.99295">
        <ele>406.281</ele>
        <time>2012-08-21T08:01:32Z</time>
      </trkpt>
      <trkpt lat="47.29982" lon="4.99285">
        <ele>409.215</ele>
        <time>2012-08-21T08:01:43Z</time>
      </trkpt>
      <trkpt lat="47.29978" lon="4.99268">
        <ele>410.359</ele>
        <time>2012-08-21T08:01:54Z</time>
      </trkpt>
      <trkpt lat="47.29978" lon="4.99243">
        <ele>411.66</ele>
        <time>2012-08-21T08:02:05Z</time>
      </trkpt>
      <trkpt lat="47.29975" lon="4.99228">
        <ele>412.772</ele>
        <time>2012-08-21T08:02:16Z</time>
      </trkpt>
      <trkpt lat="47.29973" lon="4.99218">
        <ele>411.055</ele>
        <time>2012-08-21T08:02:27Z</time>
      </trkpt>
      <trkpt lat="47.29975" lon="4.9919">
        <ele>406.846</ele>
        <time>2012-08-21T08:02:38Z</time>
      </trkpt>
      <trkpt lat="47.2998" lon="4.99167">
        <ele>406.696</ele>
        <time>2012-08-21T08:02:49Z</time>
      </trkpt>
      <trkpt lat="47.29985" lon="4.99145">
        <ele>404.947</ele>
        <time>2012-08-21T08:03:00Z</time>
      </trkpt>
      <trkpt lat="47.29993" lon="4.99128">
        <ele>406.822</ele>
        <time>2012-08-21T08:03:11Z</time>
      </trkpt>
      <trkpt lat="47.30002" lon="4.99107">
        <ele>403.411</ele>
        <time>2012-08-21T08:03:22Z</time>
      </trkpt>
      <trkpt lat="47.30012" lon="4.9909">
        <ele>404.09</ele>
        <time>2012-08-21T08:03:33Z</time>
      </trkpt>
      <trkpt lat="47.30017" lon="4.99075">
        <ele>405.913</ele>
        <time>2012-08-21T08:03:44Z</time>
      </trkpt>
      <trkpt lat="47.30018" lon="4.9905">
        <ele>402.344</ele>
        <time>2012-08-21T08:03:55Z</time>
      </trkpt>
      <trkpt lat="47.30017" lon="4.9903">
        <ele>403.605</ele>
        <time>2012-08-21T08:04:06Z</time>
      </trkpt>
      <trkpt lat="47.30008" lon="4.99022">
        <ele>407.672</ele>
        <time>2012-08-21T08:04:17Z</time>
      </trkpt>
      <trkpt lat="47.30003" lon="4.99008">
        <ele>408.933</ele>
        <time>2012-08-21T08:04:28Z</time>
      </trkpt>
      <trkpt lat="47.29997" lon="4.98993">
        <ele>409.384</ele>
        <time>2012-08-21T08:04:39Z</time>
      </trkpt>
      <trkpt lat="47.29992" lon="4.98972">
        <ele>409.012</ele>
        <time>2012-08-21T08:04:50Z</time>
      </trkpt>
      <trkpt lat="47.29987" lon="4.9895">
        <ele>408.156</ele>
        <time>2012-08-21T08:05:01Z</time>
      </trkpt>
      <trkpt lat="47.29982" lon="4.9893">
        <ele>408.259</ele>
        <time>2012-08-21T08:05:12Z</time>
      </trkpt>
      <trkpt lat="47.29973" lon="4.9891">
        <ele>408.934</ele>
        <time>2012-08-21T08:05:23Z</time>
      </trkpt>
      <trkpt lat="47.29968" lon="4.9889">
        <ele>410.757</ele>
        <time>2012-08-21T08:05:34Z</time>
      </trkpt>
      <trkpt lat="47.2996" lon="4.98872">
        <ele>407.783</ele>
        <time>2012-08-21T08:05:45Z</time>
      </trkpt>
      <trkpt lat="47.29962" lon="4.98852">
        <ele>408.538</ele>
        <time>2012-08-21T08:05:56Z</time>
      </trkpt>
      <trkpt lat="47.29968" lon="4.98837">
        <ele>411.03</ele>
        <time>2012-08-21T08:06:07Z</time>
      </trkpt>
      <trkpt lat="47.29975" lon="4.98817">
        <ele>407.451</ele>
        <time>2012-08-21T08:06:18Z</time>
      </trkpt>
      <trkpt lat="47.29982" lon="4.98798">
        <ele>405.628</ele>
        <time>2012-08-21T08:06:29Z</time>
      </trkpt>
      <trkpt lat="47.29987" lon="4.98782">
        <ele>406.774</ele>
        <time>2012-08-21T08:06:40Z</time>
      </trkpt>
      <trkpt lat="47.29987" lon="4.98762">
        <ele>407.901</ele>
        <time>2012-08-21T08:06:51Z</time>
      </trkpt>
      <trkpt lat="47.29983" lon="4.98742">
        <ele>408.816</ele>
        <time>2012-08-21T08:07:02Z</time>
      </trkpt>
      <trkpt lat="47.29987" lon="4.98717">
        <ele>407.055</ele>
        <time>2012-08-21T08:07:13Z</time>
      </trkpt>
      <trkpt lat="47.29997" lon="4.98697">
        <ele>408.557</ele>
        <time>2012-08-21T08:07:24Z</time>
      </trkpt>
      <trkpt lat="47.30003" lon="4.98677">
        <ele>406.119</ele>
        <time>2012-08-21T08:07:35Z</time>
      </trkpt>
      <trkpt lat="47.3001" lon="4.98658">
        <ele>405.298</ele>
        <time>2012-08-21T08:07:46Z</time>
      </trkpt>
      <trkpt lat="47.30017" lon="4.98642">
        <ele>406.259</ele>
        <time>2012-08-21T08:07:57Z</time>
      </trkpt>
      <trkpt lat="47.30025" lon="4.98625">
        <ele>409.175</ele>
        <time>2012-08-21T08:08:08Z</time>
      </trkpt>
      <trkpt lat="47.30033" lon="4.98608">
        <ele>410.942</ele>
        <time>2012-08-21T08:08:19Z</time>
      </trkpt>
      <trkpt lat="47.30042" lon="4.9859">
        <ele>408.251</ele>
        <time>2012-08-21T08:08:30Z</time>
      </trkpt>
      <trkpt lat="47.3005" lon="4.98573">
        <ele>404.645</ele>
        <time>2012-08-21T08:08:41Z</time>
      </trkpt>
      <trkpt lat="47.30058" lon="4.9856">
        <ele>406.36</ele>
        <time>2012-08-21T08:08:52Z</time>
      </trkpt>
      <trkpt lat="47.30053" lon="4.9854">
        <ele>407.066</ele>
        <time>2012-08-21T08:09:03Z</time>
      </trkpt>
      <trkpt lat="47.30047" lon="4.9852">
        <ele>408.836</ele>
        <time>2012-08-21T08:09:14Z</time>
      </trkpt>
      <trkpt lat="47.3004" lon="4.98498">
        <ele>409.661</ele>
        <time>2012-08-21T08:09:25Z</time>
      </trkpt>
      <trkpt lat="47.30035" lon="4.9848">
        <ele>407.511</ele>
        <time>2012-08-21T08:09:36Z</time>
      </trkpt>
      <trkpt lat="47.30027" lon="4.9846">
        <ele>407.445</ele>
        <time>2012-08-21T08:09:47Z</time>
      </trkpt>
      <trkpt lat="47.3002" lon="4.98442">
        <ele>406.674</ele>
        <time>2012-08-21T08:09:58Z</time>
      </trkpt>
      <trkpt lat="47.30013" lon="4.98418">
        <ele>404.392</ele>
        <time>2012-08-21T08:10:09Z</time>
      </trkpt>
      <trkpt lat="47.30005" lon="4.984">
        <ele>405.225</ele>
        <time>2012-08-21T08:10:20Z</time>
      </trkpt>
      <trkpt lat="47.29998" lon="4.9838">
        <ele>402.911</ele>
        <time>2012-08-21T08:10:31Z</time>
      </trkpt>
      <trkpt lat="47.29992" lon="4.98362">
        <ele>400.659</ele>
        <time>2012-08-21T08:10:42Z</time>
      </trkpt>
      <trkpt lat="47.2999" lon="4.98338">
        <ele>399.666</ele>
        <time>2012-08-21T08:10:53Z</time>
      </trkpt>
      <trkpt lat="47.29985" lon="4.98322">
        <ele>404.511</ele>
        <time>2012-08-21T08:11:04Z</time>
      </trkpt>
      <trkpt lat="47.29977" lon="4.98307">
        <ele>405.708</ele>
        <time>2012-08-21T08:11:15Z</time>
      </trkpt>
      <trkpt lat="47.29967" lon="4.98287">
        <ele>406.026</ele>
        <time>2012-08-21T08:11:26Z</time>
      </trkpt>
      <trkpt lat="47.2996" lon="4.98273">
        <ele>405.689</ele>
        <time>2012-08-21T08:11:37Z</time>
      </trkpt>
      <trkpt lat="47.29952" lon="4.98253">
        <ele>404.815</ele>
        <time>2012-08-21T08:11:48Z</time>
      </trkpt>
      <trkpt lat="47.29942" lon="4.98235">
        <ele>405.952</ele>
        <time>2012-08-21T08:11:59Z</time>
      </trkpt>
      <trkpt lat="47.29933" lon="4.98215">
        <ele>405.654</ele>
        <time>2012-08-21T08:12:10Z</time>
      </trkpt>
      <trkpt lat="47.29925" lon="4.98198">
        <ele>408.084</ele>
        <time>2012-08-21T08:12:21Z</time>
      </trkpt>
      <trkpt lat="47.29917" lon="4.98177">
        <ele>406.245</ele>
        <time>2012-08-21T08:12:32Z</time>
      </trkpt>
      <trkpt lat="47.2991" lon="4.9816">
        <ele>405.315</ele>
        <time>2012-08-21T08:12:43Z</time>
      </trkpt>
      <trkpt lat="47.29902" lon="4.98143">
        <ele>404.086</ele>
        <time>2012-08-21T08:12:54Z</time>
      </trkpt>
      <trkpt lat="47.29898" lon="4.98123">
        <ele>406.434</ele>
        <time>2012-08-21T08:13:05Z</time>
      </trkpt>
      <trkpt lat="47.29893" lon="4.98103">
        <ele>407.419</ele>
        <time>2012-08-21T08:13:16Z</time>
      </trkpt>
      <trkpt lat="47.29888" lon="4.98083">
        <ele>409.887</ele>
        <time>2012-08-21T08:13:27Z</time>
      </trkpt>
      <trkpt lat="47.29887" lon="4.98062">
        <ele>408.353</ele>
        <time>2012-08-21T08:13:38Z</time>
      </trkpt>
      <trkpt lat="47.29885" lon="4.98038">
        <ele>406.531</ele>
        <time>2012-08-21T08:13:49Z</time>
      </trkpt>
      <trkpt lat="47.29883" lon="4.98017">
        <ele>402.384</ele>
        <time>2012-08-21T08:14:00Z</time>
      </trkpt>
      <trkpt lat="47.29883" lon="4.97998">
        <ele>403.631</ele>
        <time>2012-08-21T08:14:11Z</time>
      </trkpt>
      <trkpt lat="47.29882" lon="4.97977">
        <ele>403.483</ele>
        <time>2012-08-21T08:14:22Z</time>
      </trkpt>
      <trkpt lat="47.2988" lon="4.97952">
        <ele>402.655</ele>
        <time>2012-08-21T08:14:33Z</time>
      </trkpt>
      <trkpt lat="47.29878" lon="4.97928">
        <ele>400.524</ele>
        <time>2012-08-21T08:14:44Z</time>
      </trkpt>
      <trkpt lat="47.2988" lon="4.97907">
        <ele>399.648</ele>
        <time>2012-08-21T08:14:55Z</time>
      </trkpt>
      <trkpt lat="47.2988" lon="4.97885">
        <ele>398.378</ele>
        <time>2012-08-21T08:15:06Z</time>
      </trkpt>
      <trkpt lat="47.2988" lon="4.97867">
        <ele>399.852</ele>
        <time>2012-08-21T08:15:17Z</time>
      </trkpt>
      <trkpt lat="47.29878" lon="4.97847">
        <ele>399.859</ele>
        <time>2012-08-21T08:15:28Z</time>
      </trkpt>
      <trkpt lat="47.29877" lon="4.97822">
        <ele>399.066</ele>
        <time>2012-08-21T08:15:39Z</time>
      </trkpt>
      <trkpt lat="47.29875" lon="4.97798">
        <ele>399.311</ele>
        <time>2012-08-21T08:15:50Z</time>
      </trkpt>
      <trkpt lat="47.29875" lon="4.97778">
        <ele>398.559</ele>
        <time>2012-08-21T08:16:01Z</time>
      </trkpt>
      <trkpt lat="47.29873" lon="4.97758">
        <ele>397.358</ele>
        <time>2012-08-21T08:16:12Z</time>
      </trkpt>
      <trkpt lat="47.29873" lon="4.97737">
        <ele>397.466</ele>
        <time>2012-08-21T08:16:23Z</time>
      </trkpt>
      <trkpt lat="47.29873" lon="4.97715">
        <ele>399.096</ele>
        <time>2012-08-21T08:16:34Z</time>
      </trkpt>
      <trkpt lat="47.29873" lon="4.97693">
        <ele>401.013</ele>
        <time>2012-08-21T08:16:45Z</time>
      </trkpt>
      <trkpt lat="47.29872" lon="4.97673">
        <ele>401.068</ele>
        <time>2012-08-21T08:16:56Z</time>
      </trkpt>
      <trkpt lat="47.29868" lon="4.9765">
        <ele>403.229</ele>
        <time>2012-08-21T08:17:07Z</time>
      </trkpt>
      <trkpt lat="47.29863" lon="4.97628">
        <ele>406.575</ele>
        <time>2012-08-21T08:17:18Z</time>
      </trkpt>
      <trkpt lat="47.2986" lon="4.97607">
        <ele>405.761</ele>
        <time>2012-08-21T08:17:29Z</time>
      </trkpt>
      <trkpt lat="47.29855" lon="4.97587">
        <ele>407.756</ele>
        <time>2012-08-21T08:17:40Z</time>
      </trkpt>
      <trkpt lat="47.29852" lon="4.97565">
        <ele>409.097</ele>
        <time>2012-08-21T08:17:51Z</time>
      </trkpt>
      <trkpt lat="47.29847" lon="4.97545">
        <ele>408.889</ele>
        <time>2012-08-21T08:18:02Z</time>
      </trkpt>
      <trkpt lat="47.29842" lon="4.97527">
        <ele>409.164</ele>
        <time>2012-08-21T08:18:13Z</time>
      </trkpt>
      <trkpt lat="47.29838" lon="4.97507">
        <ele>413.22</ele>
        <time>2012-08-21T08:18:24Z</time>
      </trkpt>
      <trkpt lat="47.29835" lon="4.97485">
        <ele>412.769</ele>
        <time>2012-08-21T08:18:35Z</time>
      </trkpt>
      <trkpt lat="47.29832" lon="4.97462">
        <ele>412.662</ele>
        <time>2012-08-21T08:18:46Z</time>
      </trkpt>
      <trkpt lat="47.2983" lon="4.97442">
        <ele>413.034</ele>
        <time>2012-08-21T08:18:57Z</time>
      </trkpt>
      <trkpt lat="47.29825" lon="4.97423">
        <ele>412.283</ele>
        <time>2012-08-21T08:19:08Z</time>
      </trkpt>
      <trkpt lat="47.29828" lon="4.97402">
        <ele>412.657</ele>
        <time>2012-08-21T08:19:19Z</time>
      </trkpt>
      <trkpt lat="47.29833" lon="4.97382">
        <ele>414.702</ele>
        <time>2012-08-21T08:19:30Z</time>
      </trkpt>
      <trkpt lat="47.29837" lon="4.9736">
        <ele>416.411</ele>
        <time>2012-08-21T08:19:41Z</time>
      </trkpt>
      <trkpt lat="47.2984" lon="4.97338">
        <ele>418.509</ele>
        <time>2012-08-21T08:19:52Z</time>
      </trkpt>
      <trkpt lat="47.29843" lon="4.97318">
        <ele>420.531</ele>
        <time>2012-08-21T08:20:03Z</time>
      </trkpt>
      <trkpt lat="47.29847" lon="4.97298">
        <ele>421.791</ele>
        <time>2012-08-21T08:20:14Z</time>
      </trkpt>
      <trkpt lat="47.29847" lon="4.97277">
        <ele>422.513</ele>
        <time>2012-08-21T08:20:25Z</time>
      </trkpt>
      <trkpt lat="47.29845" lon="4.97253">
        <ele>419.453</ele>
        <time>2012-08-21T08:20:36Z</time>
      </trkpt>
      <trkpt lat="47.29842" lon="4.9723">
        <ele>418.28</ele>
        <time>2012-08-21T08:20:47Z</time>
      </trkpt>
      <trkpt lat="47.29842" lon="4.9721">
        <ele>416.437</ele>
        <time>2012-08-21T08:20:58Z</time>
      </trkpt>
      <trkpt lat="47.2984" lon="4.9719">
        <ele>416.401</ele>
        <time>2012-08-21T08:21:09Z</time>
      </trkpt>
      <trkpt lat="47.29838" lon="4.97168">
        <ele>415.149</ele>
        <time>2012-08-21T08:21:20Z</time>
      </trkpt>
      <trkpt lat="47.29838" lon="4.97152">
        <ele>415.579</ele>
        <time>2012-08-21T08:21:31Z</time>
      </trkpt>
      <trkpt lat="47.29835" lon="4.97127">
        <ele>414.384</ele>
        <time>2012-08-21T08:21:42Z</time>
      </trkpt>
      <trkpt lat="47.29833" lon="4.971">
        <ele>410.157</ele>
        <time>2012-08-21T08:21:53Z</time>
      </trkpt>
      <trkpt lat="47.2983" lon="4.97078">
        <ele>410.254</ele>
        <time>2012-08-21T08:22:04Z</time>
      </trkpt>
      <trkpt lat="47.2983" lon="4.97057">
        <ele>412.229</ele>
        <time>2012-08-21T08:22:15Z</time>
      </trkpt>
      <trkpt lat="47.29833" lon="4.97033">
        <ele>411.618</ele>
        <time>2012-08-21T08:22:26Z</time>
      </trkpt>
      <trkpt lat="47.29835" lon="4.97018">
        <ele>414.181</ele>
        <time>2012-08-21T08:22:37Z</time>
      </trkpt>
      <trkpt lat="47.29837" lon="4.97">
        <ele>413.11</ele>
        <time>2012-08-21T08:22:48Z</time>
      </trkpt>
      <trkpt lat="47.2984" lon="4.9698">
        <ele>413.696</ele>
        <time>2012-08-21T08:22:59Z</time>
      </trkpt>
      <trkpt lat="47.29843" lon="4.96958">
        <ele>413.486</ele>
        <time>2012-08-21T08:23:10Z</time>
      </trkpt>
      <trkpt lat="47.29848" lon="4.96943">
        <ele>414.196</ele>
        <time>2012-08-21T08:23:21Z</time>
      </trkpt>
      <trkpt lat="47.29853" lon="4.96927">
        <ele>416.779</ele>
        <time>2012-08-21T08:23:32Z</time>
      </trkpt>
      <trkpt lat="47.29855" lon="4.9692">
        <ele>417.226</ele>
        <time>2012-08-21T08:23:43Z</time>
      </trkpt>
      <trkpt lat="47.29863" lon="4.969">
        <ele>416.699</ele>
        <time>2012-08-21T08:23:54Z</time>
      </trkpt>
      <trkpt lat="47.29872" lon="4.96878">
        <ele>418.218</ele>
        <time>2012-08-21T08:24:05Z</time>
      </trkpt>
      <trkpt lat="47.29878" lon="4.96862">
        <ele>420.221</ele>
        <time>2012-08-21T08:24:16Z</time>
      </trkpt>
      <trkpt lat="47.29887" lon="4.96842">
        <ele>420.666</ele>
        <time>2012-08-21T08:24:27Z</time>
      </trkpt>
      <trkpt lat="47.29895" lon="4.9682">
        <ele>421.677</ele>
        <time>2012-08-21T08:24:38Z</time>
      </trkpt>
      <trkpt lat="47.29902" lon="4.96803">
        <ele>424.767</ele>
        <time>2012-08-21T08:24:49Z</time>
      </trkpt>
      <trkpt lat="47.29908" lon="4.96778">
        <ele>413.278</ele>
        <time>2012-08-21T08:25:00Z</time>
      </trkpt>
      <trkpt lat="47.29917" lon="4.96753">
        <ele>404.406</ele>
        <time>2012-08-21T08:25:11Z</time>
      </trkpt>
      <trkpt lat="47.29925" lon="4.96733">
        <ele>400.269</ele>
        <time>2012-08-21T08:25:22Z</time>
      </trkpt>
      <trkpt lat="47.29935" lon="4.96717">
        <ele>399.56</ele>
        <time>2012-08-21T08:25:33Z</time>
      </trkpt>
      <trkpt lat="47.29947" lon="4.96697">
        <ele>401.774</ele>
        <time>2012-08-21T08:25:44Z</time>
      </trkpt>
      <trkpt lat="47.29955" lon="4.96678">
        <ele>403.802</ele>
        <time>2012-08-21T08:25:55Z</time>
      </trkpt>
      <trkpt lat="47.2996" lon="4.9666">
        <ele>406.344</ele>
        <time>2012-08-21T08:26:06Z</time>
      </trkpt>
      <trkpt lat="47.29963" lon="4.9664">
        <ele>406.715</ele>
        <time>2012-08-21T08:26:17Z</time>
      </trkpt>
      <trkpt lat="47.2997" lon="4.9662">
        <ele>410.706</ele>
        <time>2012-08-21T08:26:28Z</time>
      </trkpt>
      <trkpt lat="47.29973" lon="4.96605">
        <ele>410.926</ele>
        <time>2012-08-21T08:26:39Z</time>
      </trkpt>
      <trkpt lat="47.29983" lon="4.96595">
        <ele>409.498</ele>
        <time>2012-08-21T08:26:50Z</time>
      </trkpt>
      <trkpt lat="47.29992" lon="4.96582">
        <ele>412.723</ele>
        <time>2012-08-21T08:27:01Z</time>
      </trkpt>
      <trkpt lat="47.29995" lon="4.96577">
        <ele>414.596</ele>
        <time>2012-08-21T08:27:12Z</time>
      </trkpt>
      <trkpt lat="47.30003" lon="4.96565">
        <ele>417.749</ele>
        <time>2012-08-21T08:27:23Z</time>
      </trkpt>
      <trkpt lat="47.3001" lon="4.96565">
        <ele>419.537</ele>
        <time>2012-08-21T08:27:34Z</time>
      </trkpt>
      <trkpt lat="47.30015" lon="4.96563">
        <ele>422.67</ele>
        <time>2012-08-21T08:27:45Z</time>
      </trkpt>
      <trkpt lat="47.3003" lon="4.96563">
        <ele>426.372</ele>
        <time>2012-08-21T08:27:56Z</time>
      </trkpt>
      <trkpt lat="47.30038" lon="4.96563">
        <ele>431.291</ele>
        <time>2012-08-21T08:28:07Z</time>
      </trkpt>
      <trkpt lat="47.30045" lon="4.9656">
        <ele>436.3</ele>
        <time>2012-08-21T08:28:18Z</time>
      </trkpt>
      <trkpt lat="47.30053" lon="4.96555">
        <ele>438.741</ele>
        <time>2012-08-21T08:28:29Z</time>
      </trkpt>
      <trkpt lat="47.30062" lon="4.9655">
        <ele>438.128</ele>
        <time>2012-08-21T08:28:40Z</time>
      </trkpt>
      <trkpt lat="47.30063" lon="4.96543">
        <ele>436.254</ele>
        <time>2012-08-21T08:28:51Z</time>
      </trkpt>
      <trkpt lat="47.30065" lon="4.96527">
        <ele>436.806</ele>
        <time>2012-08-21T08:29:02Z</time>
      </trkpt>
      <trkpt lat="47.30063" lon="4.96513">
        <ele>439.28</ele>
        <time>2012-08-21T08:29:13Z</time>
      </trkpt>
      <trkpt lat="47.30062" lon="4.96497">
        <ele>440.96</ele>
        <time>2012-08-21T08:29:24Z</time>
      </trkpt>
      <trkpt lat="47.3006" lon="4.9648">
        <ele>440.25</ele>
        <time>2012-08-21T08:29:35Z</time>
      </trkpt>
      <trkpt lat="47.30057" lon="4.96462">
        <ele>439.487</ele>
        <time>2012-08-21T08:29:46Z</time>
      </trkpt>
      <trkpt lat="47.30052" lon="4.96445">
        <ele>440.724</ele>
        <time>2012-08-21T08:29:57Z</time>
      </trkpt>
      <trkpt lat="47.30048" lon="4.96428">
        <ele>440.997</ele>
        <time>2012-08-21T08:30:08Z</time>
      </trkpt>
      <trkpt lat="47.30043" lon="4.9641">
        <ele>443.527</ele>
        <time>2012-08-21T08:30:19Z</time>
      </trkpt>
      <trkpt lat="47.30037" lon="4.96388">
        <ele>445.021</ele>
        <time>2012-08-21T08:30:30Z</time>
      </trkpt>
      <trkpt lat="47.30032" lon="4.96368">
        <ele>443.559</ele>
        <time>2012-08-21T08:30:41Z</time>
      </trkpt>
      <trkpt lat="47.30028" lon="4.96353">
        <ele>448.401</ele>
        <time>2012-08-21T08:30:52Z</time>
      </trkpt>
      <trkpt lat="47.30022" lon="4.96338">
        <ele>452.908</ele>
        <time>2012-08-21T08:31:03Z</time>
      </trkpt>
      <trkpt lat="47.3002" lon="4.96328">
        <ele>451.069</ele>
        <time>2012-08-21T08:31:14Z</time>
      </trkpt>
      <trkpt lat="47.3002" lon="4.96328">
        <ele>450.846</ele>
        <time>2012-08-21T08:31:25Z</time>
      </trkpt>
      <trkpt lat="47.3002" lon="4.96328">
        <ele>450.846</ele>
        <time>2012-08-21T08:31:36Z</time>
      </trkpt>
      <trkpt lat="47.3002" lon="4.96328">
        <ele>450.846</ele>
        <time>2012-08-21T08:31:47Z</time>
      </trkpt>
      <trkpt lat="47.3002" lon="4.96327">
        <ele>449.608</ele>
        <time>2012-08-21T08:31:58Z</time>
      </trkpt>
      <trkpt lat="47.30022" lon="4.96305">
        <ele>446.786</ele>
        <time>2012-08-21T08:32:09Z</time>
      </trkpt>
      <trkpt lat="47.30025" lon="4.96295">
        <ele>447.071</ele>
        <time>2012-08-21T08:32:20Z</time>
      </trkpt>
      <trkpt lat="47.30028" lon="4.96277">
        <ele>446.437</ele>
        <time>2012-08-21T08:32:31Z</time>
      </trkpt>
      <trkpt lat="47.30023" lon="4.96262">
        <ele>443.739</ele>
        <time>2012-08-21T08:32:42Z</time>
      </trkpt>
      <trkpt lat="47.30023" lon="4.9626">
        <ele>443.055</ele>
        <time>2012-08-21T08:32:53Z</time>
      </trkpt>
      <trkpt lat="47.30023" lon="4.96258">
        <ele>441.728</ele>
        <time>2012-08-21T08:33:04Z</time>
      </trkpt>
      <trkpt lat="47.3002" lon="4.96245">
        <ele>442.196</ele>
        <time>2012-08-21T08:33:15Z</time>
      </trkpt>
      <trkpt lat="47.30013" lon="4.9622">
        <ele>441.674</ele>
        <time>2012-08-21T08:33:26Z</time>
      </trkpt>
      <trkpt lat="47.30005" lon="4.96203">
        <ele>438.91</ele>
        <time>2012-08-21T08:33:37Z</time>
      </trkpt>
      <trkpt lat="47.29992" lon="4.96203">
        <ele>435.259</ele>
        <time>2012-08-21T08:33:48Z</time>
      </trkpt>
      <trkpt lat="47.29978" lon="4.96205">
        <ele>431.257</ele>
        <time>2012-08-21T08:33:59Z</time>
      </trkpt>
      <trkpt lat="47.29967" lon="4.96193">
        <ele>430.661</ele>
        <time>2012-08-21T08:34:10Z</time>
      </trkpt>
      <trkpt lat="47.29957" lon="4.96178">
        <ele>430.505</ele>
        <time>2012-08-21T08:34:21Z</time>
      </trkpt>
      <trkpt lat="47.29952" lon="4.96158">
        <ele>431.357</ele>
        <time>2012-08-21T08:34:32Z</time>
      </trkpt>
      <trkpt lat="47.29945" lon="4.96143">
        <ele>431.298</ele>
        <time>2012-08-21T08:34:43Z</time>
      </trkpt>
      <trkpt lat="47.29935" lon="4.9613">
        <ele>430.728</ele>
        <time>2012-08-21T08:34:54Z</time>
      </trkpt>
      <trkpt lat="47.29928" lon="4.96112">
        <ele>431.418</ele>
        <time>2012-08-21T08:35:05Z</time>
      </trkpt>
      <trkpt lat="47.2992" lon="4.96095">
        <ele>431.626</ele>
        <time>2012-08-21T08:35:16Z</time>
      </trkpt>
      <trkpt lat="47.2991" lon="4.96077">
        <ele>431.179</ele>
        <time>2012-08-21T08:35:27Z</time>
      </trkpt>
      <trkpt lat="47.29902" lon="4.9606">
        <ele>431.909</ele>
        <time>2012-08-21T08:35:38Z</time>
      </trkpt>
      <trkpt lat="47.29897" lon="4.96045">
        <ele>430.243</ele>
        <time>2012-08-21T08:35:49Z</time>
      </trkpt>
      <trkpt lat="47.29887" lon="4.96025">
        <ele>429.054</ele>
        <time>2012-08-21T08:36:00Z</time>
      </trkpt>
      <trkpt lat="47.29875" lon="4.96008">
        <ele>427.981</ele>
        <time>2012-08-21T08:36:11Z</time>
      </trkpt>
      <trkpt lat="47.29865" lon="4.9599">
        <ele>426.711</ele>
        <time>2012-08-21T08:36:22Z</time>
      </trkpt>
      <trkpt lat="47.29855" lon="4.95972">
        <ele>427.337</ele>
        <time>2012-08-21T08:36:33Z</time>
      </trkpt>
      <trkpt lat="47.29848" lon="4.95953">
        <ele>426.691</ele>
        <time>2012-08-21T08:36:44Z</time>
      </trkpt>
      <trkpt lat="47.29837" lon="4.95937">
        <ele>426.638</ele>
        <time>2012-08-21T08:36:55Z</time>
      </trkpt>
      <trkpt lat="47.29827" lon="4.9592">
        <ele>427.418</ele>
        <time>2012-08-21T08:37:06Z</time>
      </trkpt>
      <trkpt lat="47.29818" lon="4.95903">
        <ele>427.779</ele>
        <time>2012-08-21T08:37:17Z</time>
      </trkpt>
      <trkpt lat="47.29808" lon="4.95883">
        <ele>427.251</ele>
        <time>2012-08-21T08:37:28Z</time>
      </trkpt>
      <trkpt lat="47.29802" lon="4.95865">
        <ele>428.317</ele>
        <time>2012-08-21T08:37:39Z</time>
      </trkpt>
      <trkpt lat="47.29797" lon="4.9585">
        <ele>430.096</ele>
        <time>2012-08-21T08:37:50Z</time>
      </trkpt>
      <trkpt lat="47.29787" lon="4.95832">
        <ele>429.762</ele>
        <time>2012-08-21T08:38:01Z</time>
      </trkpt>
      <trkpt lat="47.29775" lon="4.95813">
        <ele>429.043</ele>
        <time>2012-08-21T08:38:12Z</time>
      </trkpt>
      <trkpt lat="47.29767" lon="4.95797">
        <ele>429.641</ele>
        <time>2012-08-21T08:38:23Z</time>
      </trkpt>
      <trkpt lat="47.29757" lon="4.95778">
        <ele>428.55</ele>
        <time>2012-08-21T08:38:34Z</time>
      </trkpt>
      <trkpt lat="47.2975" lon="4.95762">
        <ele>427.332</ele>
        <time>2012-08-21T08:38:45Z</time>
      </trkpt>
      <trkpt lat="47.29738" lon="4.95745">
        <ele>426.913</ele>
        <time>2012-08-21T08:38:56Z</time>
      </trkpt>
      <trkpt lat="47.29728" lon="4.95728">
        <ele>429.242</ele>
        <time>2012-08-21T08:39:07Z</time>
      </trkpt>
      <trkpt lat="47.29722" lon="4.95713">
        <ele>429.74</ele>
        <time>2012-08-21T08:39:18Z</time>
      </trkpt>
      <trkpt lat="47.29713" lon="4.95697">
        <ele>429.294</ele>
        <time>2012-08-21T08:39:29Z</time>
      </trkpt>
      <trkpt lat="47.2971" lon="4.95678">
        <ele>428.751</ele>
        <time>2012-08-21T08:39:40Z</time>
      </trkpt>
      <trkpt lat="47.29703" lon="4.95663">
        <ele>427.812</ele>
        <time>2012-08-21T08:39:51Z</time>
      </trkpt>
      <trkpt lat="47.2969" lon="4.95645">
        <ele>427.798</ele>
        <time>2012-08-21T08:40:02Z</time>
      </trkpt>
      <trkpt lat="47.29683" lon="4.9563">
        <ele>429.796</ele>
        <time>2012-08-21T08:40:13Z</time>
      </trkpt>
      <trkpt lat="47.29672" lon="4.95608">
        <ele>430.883</ele>
        <time>2012-08-21T08:40:24Z</time>
      </trkpt>
      <trkpt lat="47.29658" lon="4.95593">
        <ele>430.44</ele>
        <time>2012-08-21T08:40:35Z</time>
      </trkpt>
      <trkpt lat="47.29652" lon="4.95582">
        <ele>430.844</ele>
        <time>2012-08-21T08:40:46Z</time>
      </trkpt>
      <trkpt lat="47.29643" lon="4.95565">
        <ele>430.082</ele>
        <time>2012-08-21T08:40:57Z</time>
      </trkpt>
      <trkpt lat="47.29635" lon="4.95547">
        <ele>428.309</ele>
        <time>2012-08-21T08:41:08Z</time>
      </trkpt>
      <trkpt lat="47.29623" lon="4.95527">
        <ele>424.503</ele>
        <time>2012-08-21T08:41:19Z</time>
      </trkpt>
      <trkpt lat="47.29612" lon="4.9551">
        <ele>424.889</ele>
        <time>2012-08-21T08:41:30Z</time>
      </trkpt>
      <trkpt lat="47.29602" lon="4.95493">
        <ele>424.134</ele>
        <time>2012-08-21T08:41:41Z</time>
      </trkpt>
      <trkpt lat="47.29592" lon="4.95478">
        <ele>423.745</ele>
        <time>2012-08-21T08:41:52Z</time>
      </trkpt>
      <trkpt lat="47.29578" lon="4.95462">
        <ele>423.529</ele>
        <time>2012-08-21T08:42:03Z</time>
      </trkpt>
      <trkpt lat="47.29568" lon="4.95445">
        <ele>423.473</ele>
        <time>2012-08-21T08:42:14Z</time>
      </trkpt>
      <trkpt lat="47.29558" lon="4.95428">
        <ele>423.874</ele>
        <time>2012-08-21T08:42:25Z</time>
      </trkpt>
      <trkpt lat="47.29548" lon="4.95412">
        <ele>424.778</ele>
        <time>2012-08-21T08:42:36Z</time>
      </trkpt>
      <trkpt lat="47.29538" lon="4.95402">
        <ele>424.566</ele>
        <time>2012-08-21T08:42:47Z</time>
      </trkpt>
      <trkpt lat="47.29528" lon="4.95388">
        <ele>424.014</ele>
        <time>2012-08-21T08:42:58Z</time>
      </trkpt>
      <trkpt lat="47.29518" lon="4.95375">
        <ele>424.875</ele>
        <time>2012-08-21T08:43:09Z</time>
      </trkpt>
      <trkpt lat="47.29503" lon="4.95363">
        <ele>424.622</ele>
        <time>2012-08-21T08:43:20Z</time>
      </trkpt>
      <trkpt lat="47.2949" lon="4.95348">
        <ele>425.005</ele>
        <time>2012-08-21T08:43:31Z</time>
      </trkpt>
      <trkpt lat="47.29478" lon="4.95333">
        <ele>425.506</ele>
        <time>2012-08-21T08:43:42Z</time>
      </trkpt>
      <trkpt lat="47.29468" lon="4.95318">
        <ele>425.817</ele>
        <time>2012-08-21T08:43:53Z</time>
      </trkpt>
      <trkpt lat="47.29455" lon="4.95305">
        <ele>425.445</ele>
        <time>2012-08-21T08:44:04Z</time>
      </trkpt>
      <trkpt lat="47.29445" lon="4.95293">
        <ele>426.848</ele>
        <time>2012-08-21T08:44:15Z</time>
      </trkpt>
      <trkpt lat="47.29433" lon="4.95278">
        <ele>427.505</ele>
        <time>2012-08-21T08:44:26Z</time>
      </trkpt>
      <trkpt lat="47.29423" lon="4.95263">
        <ele>428.134</ele>
        <time>2012-08-21T08:44:37Z</time>
      </trkpt>
      <trkpt lat="47.29412" lon="4.95248">
        <ele>427.918</ele>
        <time>2012-08-21T08:44:48Z</time>
      </trkpt>
      <trkpt lat="47.294" lon="4.95232">
        <ele>427.972</ele>
        <time>2012-08-21T08:44:59Z</time>
      </trkpt>
      <trkpt lat="47.2939" lon="4.95217">
        <ele>428.404</ele>
        <time>2012-08-21T08:45:10Z</time>
      </trkpt>
      <trkpt lat="47.2938" lon="4.952">
        <ele>428.789</ele>
        <time>2012-08-21T08:45:21Z</time>
      </trkpt>
      <trkpt lat="47.29368" lon="4.95183">
        <ele>428.857</ele>
        <time>2012-08-21T08:45:32Z</time>
      </trkpt>
      <trkpt lat="47.29358" lon="4.95167">
        <ele>427.813</ele>
        <time>2012-08-21T08:45:43Z</time>
      </trkpt>
      <trkpt lat="47.29345" lon="4.95153">
        <ele>427.515</ele>
        <time>2012-08-21T08:45:54Z</time>
      </trkpt>
      <trkpt lat="47.29335" lon="4.95138">
        <ele>426.84</ele>
        <time>2012-08-21T08:46:05Z</time>
      </trkpt>
      <trkpt lat="47.29325" lon="4.95122">
        <ele>427.575</ele>
        <time>2012-08-21T08:46:16Z</time>
      </trkpt>
      <trkpt lat="47.29317" lon="4.95107">
        <ele>428.469</ele>
        <time>2012-08-21T08:46:27Z</time>
      </trkpt>
      <trkpt lat="47.29305" lon="4.9509">
        <ele>428.363</ele>
        <time>2012-08-21T08:46:38Z</time>
      </trkpt>
      <trkpt lat="47.29293" lon="4.95073">
        <ele>427.068</ele>
        <time>2012-08-21T08:46:49Z</time>
      </trkpt>
      <trkpt lat="47.29285" lon="4.95062">
        <ele>427.317</ele>
        <time>2012-08-21T08:47:00Z</time>
      </trkpt>
      <trkpt lat="47.29275" lon="4.95045">
        <ele>427.009</ele>
        <time>2012-08-21T08:47:11Z</time>
      </trkpt>
      <trkpt lat="47.29267" lon="4.9503">
        <ele>426.552</ele>
        <time>2012-08-21T08:47:22Z</time>
      </trkpt>
      <trkpt lat="47.29255" lon="4.95012">
        <ele>426.409</ele>
        <time>2012-08-21T08:47:33Z</time>
      </trkpt>
      <trkpt lat="47.29247" lon="4.94998">
        <ele>427.601</ele>
        <time>2012-08-21T08:47:44Z</time>
      </trkpt>
      <trkpt lat="47.29235" lon="4.94982">
        <ele>427.169</ele>
        <time>2012-08-21T08:47:55Z</time>
      </trkpt>
      <trkpt lat="47.29223" lon="4.94965">
        <ele>426.622</ele>
        <time>2012-08-21T08:48:06Z</time>
      </trkpt>
      <trkpt lat="47.29212" lon="4.9495">
        <ele>426.633</ele>
        <time>2012-08-21T08:48:17Z</time>
      </trkpt>
      <trkpt lat="47.29202" lon="4.94933">
        <ele>428.131</ele>
        <time>2012-08-21T08:48:28Z</time>
      </trkpt>
      <trkpt lat="47.2919" lon="4.9492">
        <ele>430.009</ele>
        <time>2012-08-21T08:48:39Z</time>
      </trkpt>
      <trkpt lat="47.29177" lon="4.94908">
        <ele>428.849</ele>
        <time>2012-08-21T08:48:50Z</time>
      </trkpt>
      <trkpt lat="47.29163" lon="4.94897">
        <ele>428.67</ele>
        <time>2012-08-21T08:49:01Z</time>
      </trkpt>
      <trkpt lat="47.2915" lon="4.94887">
        <ele>427.396</ele>
        <time>2012-08-21T08:49:12Z</time>
      </trkpt>
      <trkpt lat="47.29145" lon="4.94883">
        <ele>426.693</ele>
        <time>2012-08-21T08:49:23Z</time>
      </trkpt>
      <trkpt lat="47.29132" lon="4.94875">
        <ele>426.152</ele>
        <time>2012-08-21T08:49:34Z</time>
      </trkpt>
      <trkpt lat="47.29118" lon="4.9487">
        <ele>426.941</ele>
        <time>2012-08-21T08:49:45Z</time>
      </trkpt>
      <trkpt lat="47.29105" lon="4.9486">
        <ele>427.831</ele>
        <time>2012-08-21T08:49:56Z</time>
      </trkpt>
      <trkpt lat="47.29092" lon="4.9485">
        <ele>430.36</ele>
        <time>2012-08-21T08:50:07Z</time>
      </trkpt>
      <trkpt lat="47.29082" lon="4.94838">
        <ele>432.337</ele>
        <time>2012-08-21T08:50:18Z</time>
      </trkpt>
      <trkpt lat="47.2907" lon="4.9483">
        <ele>433.83</ele>
        <time>2012-08-21T08:50:29Z</time>
      </trkpt>
      <trkpt lat="47.2906" lon="4.94822">
        <ele>435.412</ele>
        <time>2012-08-21T08:50:40Z</time>
      </trkpt>
      <trkpt lat="47.29048" lon="4.94808">
        <ele>437.511</ele>
        <time>2012-08-21T08:50:51Z</time>
      </trkpt>
      <trkpt lat="47.29038" lon="4.94797">
        <ele>439.79</ele>
        <time>2012-08-21T08:51:02Z</time>
      </trkpt>
      <trkpt lat="47.29028" lon="4.94783">
        <ele>441.065</ele>
        <time>2012-08-21T08:51:13Z</time>
      </trkpt>
      <trkpt lat="47.29017" lon="4.94772">
        <ele>441.633</ele>
        <time>2012-08-21T08:51:24Z</time>
      </trkpt>
      <trkpt lat="47.29007" lon="4.9476">
        <ele>442.885</ele>
        <time>2012-08-21T08:51:35Z</time>
      </trkpt>
      <trkpt lat="47.28998" lon="4.94747">
        <ele>444.733</ele>
        <time>2012-08-21T08:51:46Z</time>
      </trkpt>
      <trkpt lat="47.28985" lon="4.94737">
        <ele>447.213</ele>
        <time>2012-08-21T08:51:57Z</time>
      </trkpt>
      <trkpt lat="47.28973" lon="4.94727">
        <ele>448.842</ele>
        <time>2012-08-21T08:52:08Z</time>
      </trkpt>
      <trkpt lat="47.28962" lon="4.94718">
        <ele>451.497</ele>
        <time>2012-08-21T08:52:19Z</time>
      </trkpt>
      <trkpt lat="47.28952" lon="4.94707">
        <ele>453.646</ele>
        <time>2012-08-21T08:52:30Z</time>
      </trkpt>
      <trkpt lat="47.28937" lon="4.94697">
        <ele>452.792</ele>
        <time>2012-08-21T08:52:41Z</time>
      </trkpt>
      <trkpt lat="47.28925" lon="4.94683">
        <ele>453.044</ele>
        <time>2012-08-21T08:52:52Z</time>
      </trkpt>
      <trkpt lat="47.28912" lon="4.94672">
        <ele>454.887</ele>
        <time>2012-08-21T08:53:03Z</time>
      </trkpt>
      <trkpt lat="47.28902" lon="4.94663">
        <ele>455.356</ele>
        <time>2012-08-21T08:53:14Z</time>
      </trkpt>
      <trkpt lat="47.28888" lon="4.94653">
        <ele>455.563</ele>
        <time>2012-08-21T08:53:25Z</time>
      </trkpt>
      <trkpt lat="47.28877" lon="4.94642">
        <ele>455.622</ele>
        <time>2012-08-21T08:53:36Z</time>
      </trkpt>
      <trkpt lat="47.28868" lon="4.94632">
        <ele>455.592</ele>
        <time>2012-08-21T08:53:47Z</time>
      </trkpt>
      <trkpt lat="47.28857" lon="4.94618">
        <ele>457.436</ele>
        <time>2012-08-21T08:53:58Z</time>
      </trkpt>
      <trkpt lat="47.28847" lon="4.94603">
        <ele>457.757</ele>
        <time>2012-08-21T08:54:09Z</time>
      </trkpt>
      <trkpt lat="47.28837" lon="4.94588">
        <ele>459.71</ele>
        <time>2012-08-21T08:54:20Z</time>
      </trkpt>
      <trkpt lat="47.28825" lon="4.94578">
        <ele>460.977</ele>
        <time>2012-08-21T08:54:31Z</time>
      </trkpt>
      <trkpt lat="47.28813" lon="4.94567">
        <ele>463.315</ele>
        <time>2012-08-21T08:54:42Z</time>
      </trkpt>
      <trkpt lat="47.28802" lon="4.94555">
        <ele>466.047</ele>
        <time>2012-08-21T08:54:53Z</time>
      </trkpt>
      <trkpt lat="47.2879" lon="4.94543">
        <ele>467.889</ele>
        <time>2012-08-21T08:55:04Z</time>
      </trkpt>
      <trkpt lat="47.2878" lon="4.94533">
        <ele>472.041</ele>
        <time>2012-08-21T08:55:15Z</time>
      </trkpt>
      <trkpt lat="47.28768" lon="4.9452">
        <ele>471.679</ele>
        <time>2012-08-21T08:55:26Z</time>
      </trkpt>
      <trkpt lat="47.28758" lon="4.94505">
        <ele>470.298</ele>
        <time>2012-08-21T08:55:37Z</time>
      </trkpt>
      <trkpt lat="47.28747" lon="4.9449">
        <ele>469.624</ele>
        <time>2012-08-21T08:55:48Z</time>
      </trkpt>
      <trkpt lat="47.28735" lon="4.94475">
        <ele>467.63</ele>
        <time>2012-08-21T08:55:59Z</time>
      </trkpt>
      <trkpt lat="47.28727" lon="4.9446">
        <ele>468.117</ele>
        <time>2012-08-21T08:56:10Z</time>
      </trkpt>
      <trkpt lat="47.28715" lon="4.94447">
        <ele>468.605</ele>
        <time>2012-08-21T08:56:21Z</time>
      </trkpt>
      <trkpt lat="47.28702" lon="4.94435">
        <ele>468.116</ele>
        <time>2012-08-21T08:56:32Z</time>
      </trkpt>
      <trkpt lat="47.28695" lon="4.94422">
        <ele>468.047</ele>
        <time>2012-08-21T08:56:43Z</time>
      </trkpt>
      <trkpt lat="47.28685" lon="4.94407">
        <ele>467.498</ele>
        <time>2012-08-21T08:56:54Z</time>
      </trkpt>
      <trkpt lat="47.28673" lon="4.94393">
        <ele>466.933</ele>
        <time>2012-08-21T08:57:05Z</time>
      </trkpt>
      <trkpt lat="47.28668" lon="4.94387">
        <ele>467.409</ele>
        <time>2012-08-21T08:57:16Z</time>
      </trkpt>
      <trkpt lat="47.28657" lon="4.94377">
        <ele>466.214</ele>
        <time>2012-08-21T08:57:27Z</time>
      </trkpt>
      <trkpt lat="47.28648" lon="4.94365">
        <ele>466.922</ele>
        <time>2012-08-21T08:57:38Z</time>
      </trkpt>
      <trkpt lat="47.28638" lon="4.94355">
        <ele>468.21</ele>
        <time>2012-08-21T08:57:49Z</time>
      </trkpt>
      <trkpt lat="47.28628" lon="4.94352">
        <ele>468.855</ele>
        <time>2012-08-21T08:58:00Z</time>
      </trkpt>
      <trkpt lat="47.28623" lon="4.9435">
        <ele>468.719</ele>
        <time>2012-08-21T08:58:11Z</time>
      </trkpt>
      <trkpt lat="47.28623" lon="4.9435">
        <ele>468.546</ele>
        <time>2012-08-21T08:58:22Z</time>
      </trkpt>
      <trkpt lat="47.28623" lon="4.9435">
        <ele>468.751</ele>
        <time>2012-08-21T08:58:33Z</time>
      </trkpt>
      <trkpt lat="47.28623" lon="4.9435">
        <ele>468.856</ele>
        <time>2012-08-21T08:58:44Z</time>
      </trkpt>
      <trkpt lat="47.28623" lon="4.9435">
        <ele>468.714</ele>
        <time>2012-08-21T08:58:55Z</time>
      </trkpt>
      <trkpt lat="47.28623" lon="4.9435">
        <ele>468.714</ele>
        <time>2012-08-21T08:59:06Z</time>
      </trkpt>
      <trkpt lat="47.28622" lon="4.9435">
        <ele>469.055</ele>
        <time>2012-08-21T08:59:17Z</time>
      </trkpt>
      <trkpt lat="47.28622" lon="4.9435">
        <ele>469.055</ele>
        <time>2012-08-21T08:59:28Z</time>
      </trkpt>
      <trkpt lat="47.28622" lon="4.9435">
        <ele>469.055</ele>
        <time>2012-08-21T08:59:39Z</time>
      </trkpt>
      <trkpt lat="47.28622" lon="4.9435">
        <ele>469.055</ele>
        <time>2012-08-21T08:59:50Z</time>
      </trkpt>
      <trkpt lat="47.28622" lon="4.9435">
        <ele>469.186</ele>
        <time>2012-08-21T09:00:01Z</time>
      </trkpt>
      <trkpt lat="47.28622" lon="4.9435">
        <ele>468.886</ele>
        <time>2012-08-21T09:00:12Z</time>
      </trkpt>
      <trkpt lat="47.28617" lon="4.9435">
        <ele>469.915</ele>
        <time>2012-08-21T09:00:23Z</time>
      </trkpt>
      <trkpt lat="47.28612" lon="4.9435">
        <ele>471.377</ele>
        <time>2012-08-21T09:00:34Z</time>
      </trkpt>
      <trkpt lat="47.28607" lon="4.9435">
        <ele>473.498</ele>
        <time>2012-08-21T09:00:45Z</time>
      </trkpt>
      <trkpt lat="47.28597" lon="4.94353">
        <ele>475.408</ele>
        <time>2012-08-21T09:00:56Z</time>
      </trkpt>
      <trkpt lat="47.28587" lon="4.94355">
        <ele>476.889</ele>
        <time>2012-08-21T09:01:07Z</time>
      </trkpt>
      <trkpt lat="47.28582" lon="4.94355">
        <ele>477.49</ele>
        <time>2012-08-21T09:01:18Z</time>
      </trkpt>
      <trkpt lat="47.28577" lon="4.94353">
        <ele>479.164</ele>
        <time>2012-08-21T09:01:29Z</time>
      </trkpt>
      <trkpt lat="47.28567" lon="4.94353">
        <ele>480.122</ele>
        <time>2012-08-21T09:01:40Z</time>
      </trkpt>
      <trkpt lat="47.28555" lon="4.94353">
        <ele>481.01</ele>
        <time>2012-08-21T09:01:51Z</time>
      </trkpt>
      <trkpt lat="47.2854" lon="4.94362">
        <ele>480.843</ele>
        <time>2012-08-21T09:02:02Z</time>
      </trkpt>
      <trkpt lat="47.2853" lon="4.94377">
        <ele>483.47</ele>
        <time>2012-08-21T09:02:13Z</time>
      </trkpt>
      <trkpt lat="47.28523" lon="4.94388">
        <ele>484.847</ele>
        <time>2012-08-21T09:02:24Z</time>
      </trkpt>
      <trkpt lat="47.28515" lon="4.94408">
        <ele>486.453</ele>
        <time>2012-08-21T09:02:35Z</time>
      </trkpt>
      <trkpt lat="47.2851" lon="4.94428">
        <ele>485.811</ele>
        <time>2012-08-21T09:02:46Z</time>
      </trkpt>
      <trkpt lat="47.28502" lon="4.94448">
        <ele>486.981</ele>
        <time>2012-08-21T09:02:57Z</time>
      </trkpt>
      <trkpt lat="47.28495" lon="4.94472">
        <ele>486.807</ele>
        <time>2012-08-21T09:03:08Z</time>
      </trkpt>
      <trkpt lat="47.2849" lon="4.94488">
        <ele>486.76</ele>
        <time>2012-08-21T09:03:19Z</time>
      </trkpt>
      <trkpt lat="47.28483" lon="4.94503">
        <ele>488.538</ele>
        <time>2012-08-21T09:03:30Z</time>
      </trkpt>
      <trkpt lat="47.28477" lon="4.94528">
        <ele>489.883</ele>
        <time>2012-08-21T09:03:41Z</time>
      </trkpt>
      <trkpt lat="47.28472" lon="4.94543">
        <ele>469.4</ele>
        <time>2012-08-21T09:03:52Z</time>
      </trkpt>
      <trkpt lat="47.28468" lon="4.94563">
        <ele>490.853</ele>
        <time>2012-08-21T09:04:03Z</time>
      </trkpt>
      <trkpt lat="47.28465" lon="4.94577">
        <ele>490.916</ele>
        <time>2012-08-21T09:04:14Z</time>
      </trkpt>
      <trkpt lat="47.28463" lon="4.94595">
        <ele>491.775</ele>
        <time>2012-08-21T09:04:25Z</time>
      </trkpt>
      <trkpt lat="47.28462" lon="4.94613">
        <ele>492.749</ele>
        <time>2012-08-21T09:04:36Z</time>
      </trkpt>
      <trkpt lat="47.28458" lon="4.94628">
        <ele>491.3</ele>
        <time>2012-08-21T09:04:47Z</time>
      </trkpt>
      <trkpt lat="47.28455" lon="4.94638">
        <ele>490.3</ele>
        <time>2012-08-21T09:04:58Z</time>
      </trkpt>
      <trkpt lat="47.2845" lon="4.94645">
        <ele>489.709</ele>
        <time>2012-08-21T09:05:09Z</time>
      </trkpt>
      <trkpt lat="47.28447" lon="4.94648">
        <ele>487.795</ele>
        <time>2012-08-21T09:05:20Z</time>
      </trkpt>
      <trkpt lat="47.28432" lon="4.94662">
        <ele>488.569</ele>
        <time>2012-08-21T09:05:31Z</time>
      </trkpt>
      <trkpt lat="47.28427" lon="4.94672">
        <ele>487</ele>
        <time>2012-08-21T09:05:42Z</time>
      </trkpt>
      <trkpt lat="47.28413" lon="4.94685">
        <ele>487.774</ele>
        <time>2012-08-21T09:05:53Z</time>
      </trkpt>
      <trkpt lat="47.284" lon="4.94692">
        <ele>487.049</ele>
        <time>2012-08-21T09:06:04Z</time>
      </trkpt>
      <trkpt lat="47.28382" lon="4.94707">
        <ele>485.139</ele>
        <time>2012-08-21T09:06:15Z</time>
      </trkpt>
      <trkpt lat="47.28372" lon="4.9471">
        <ele>482.754</ele>
        <time>2012-08-21T09:06:26Z</time>
      </trkpt>
      <trkpt lat="47.2836" lon="4.94718">
        <ele>482.471</ele>
        <time>2012-08-21T09:06:37Z</time>
      </trkpt>
      <trkpt lat="47.28345" lon="4.9473">
        <ele>482.197</ele>
        <time>2012-08-21T09:06:48Z</time>
      </trkpt>
      <trkpt lat="47.28327" lon="4.94747">
        <ele>481.808</ele>
        <time>2012-08-21T09:06:59Z</time>
      </trkpt>
      <trkpt lat="47.28307" lon="4.94775">
        <ele>478.826</ele>
        <time>2012-08-21T09:07:10Z</time>
      </trkpt>
      <trkpt lat="47.28295" lon="4.94803">
        <ele>477.694</ele>
        <time>2012-08-21T09:07:21Z</time>
      </trkpt>
      <trkpt lat="47.28288" lon="4.9483">
        <ele>475.441</ele>
        <time>2012-08-21T09:07:32Z</time>
      </trkpt>
      <trkpt lat="47.28288" lon="4.94852">
        <ele>475.844</ele>
        <time>2012-08-21T09:07:43Z</time>
      </trkpt>
      <trkpt lat="47.28285" lon="4.94877">
        <ele>475.366</ele>
        <time>2012-08-21T09:07:54Z</time>
      </trkpt>
      <trkpt lat="47.28287" lon="4.949">
        <ele>476.323</ele>
        <time>2012-08-21T09:08:05Z</time>
      </trkpt>
      <trkpt lat="47.2829" lon="4.94922">
        <ele>476.029</ele>
        <time>2012-08-21T09:08:16Z</time>
      </trkpt>
      <trkpt lat="47.2829" lon="4.94942">
        <ele>455.5</ele>
        <time>2012-08-21T09:08:27Z</time>
      </trkpt>
      <trkpt lat="47.28288" lon="4.94967">
        <ele>472.898</ele>
        <time>2012-08-21T09:08:38Z</time>
      </trkpt>
      <trkpt lat="47.28292" lon="4.94992">
        <ele>471.456</ele>
        <time>2012-08-21T09:08:49Z</time>
      </trkpt>
      <trkpt lat="47.28285" lon="4.95015">
        <ele>471.541</ele>
        <time>2012-08-21T09:09:00Z</time>
      </trkpt>
      <trkpt lat="47.28283" lon="4.95025">
        <ele>470.488</ele>
        <time>2012-08-21T09:09:11Z</time>
      </trkpt>
      <trkpt lat="47.28278" lon="4.95052">
        <ele>467.987</ele>
        <time>2012-08-21T09:09:22Z</time>
      </trkpt>
      <trkpt lat="47.2828" lon="4.95083">
        <ele>466.813</ele>
        <time>2012-08-21T09:09:33Z</time>
      </trkpt>
      <trkpt lat="47.2828" lon="4.9511">
        <ele>467.283</ele>
        <time>2012-08-21T09:09:44Z</time>
      </trkpt>
      <trkpt lat="47.28285" lon="4.95132">
        <ele>467.357</ele>
        <time>2012-08-21T09:09:55Z</time>
      </trkpt>
      <trkpt lat="47.2829" lon="4.95153">
        <ele>466.706</ele>
        <time>2012-08-21T09:10:06Z</time>
      </trkpt>
      <trkpt lat="47.28293" lon="4.9518">
        <ele>464.726</ele>
        <time>2012-08-21T09:10:17Z</time>
      </trkpt>
      <trkpt lat="47.28303" lon="4.95202">
        <ele>463.495</ele>
        <time>2012-08-21T09:10:28Z</time>
      </trkpt>
      <trkpt lat="47.28313" lon="4.95222">
        <ele>462.811</ele>
        <time>2012-08-21T09:10:39Z</time>
      </trkpt>
      <trkpt lat="47.28318" lon="4.9524">
        <ele>462.872</ele>
        <time>2012-08-21T09:10:50Z</time>
      </trkpt>
      <trkpt lat="47.28323" lon="4.9526">
        <ele>461.704</ele>
        <time>2012-08-21T09:11:01Z</time>
      </trkpt>
      <trkpt lat="47.2833" lon="4.95273">
        <ele>459.334</ele>
        <time>2012-08-21T09:11:12Z</time>
      </trkpt>
      <trkpt lat="47.28342" lon="4.95292">
        <ele>458.85</ele>
        <time>2012-08-21T09:11:23Z</time>
      </trkpt>
      <trkpt lat="47.28352" lon="4.95315">
        <ele>457.84</ele>
        <time>2012-08-21T09:11:34Z</time>
      </trkpt>
      <trkpt lat="47.28365" lon="4.95335">
        <ele>457.886</ele>
        <time>2012-08-21T09:11:45Z</time>
      </trkpt>
      <trkpt lat="47.28377" lon="4.95352">
        <ele>456.322</ele>
        <time>2012-08-21T09:11:56Z</time>
      </trkpt>
      <trkpt lat="47.28392" lon="4.95363">
        <ele>444</ele>
        <time>2012-08-21T09:12:07Z</time>
      </trkpt>
      <trkpt lat="47.28407" lon="4.9538">
        <ele>456.555</ele>
        <time>2012-08-21T09:12:18Z</time>
      </trkpt>
      <trkpt lat="47.2842" lon="4.95393">
        <ele>457.725</ele>
        <time>2012-08-21T09:12:29Z</time>
      </trkpt>
      <trkpt lat="47.2843" lon="4.95408">
        <ele>458.018</ele>
        <time>2012-08-21T09:12:40Z</time>
      </trkpt>
      <trkpt lat="47.2844" lon="4.95427">
        <ele>458.013</ele>
        <time>2012-08-21T09:12:51Z</time>
      </trkpt>
      <trkpt lat="47.2845" lon="4.95443">
        <ele>457.94</ele>
        <time>2012-08-21T09:13:02Z</time>
      </trkpt>
      <trkpt lat="47.2846" lon="4.95457">
        <ele>457.481</ele>
        <time>2012-08-21T09:13:13Z</time>
      </trkpt>
      <trkpt lat="47.2847" lon="4.95478">
        <ele>459.792</ele>
        <time>2012-08-21T09:13:24Z</time>
      </trkpt>
      <trkpt lat="47.28483" lon="4.95493">
        <ele>460.35</ele>
        <time>2012-08-21T09:13:35Z</time>
      </trkpt>
      <trkpt lat="47.28493" lon="4.95515">
        <ele>460.041</ele>
        <time>2012-08-21T09:13:46Z</time>
      </trkpt>
      <trkpt lat="47.28502" lon="4.95533">
        <ele>460.947</ele>
        <time>2012-08-21T09:13:57Z</time>
      </trkpt>
      <trkpt lat="47.28508" lon="4.95557">
        <ele>460.597</ele>
        <time>2012-08-21T09:14:08Z</time>
      </trkpt>
      <trkpt lat="47.28517" lon="4.95575">
        <ele>458.9</ele>
        <time>2012-08-21T09:14:19Z</time>
      </trkpt>
      <trkpt lat="47.28525" lon="4.95595">
        <ele>457.441</ele>
        <time>2012-08-21T09:14:30Z</time>
      </trkpt>
      <trkpt lat="47.28532" lon="4.95613">
        <ele>457.115</ele>
        <time>2012-08-21T09:14:41Z</time>
      </trkpt>
      <trkpt lat="47.28538" lon="4.95637">
        <ele>456.072</ele>
        <time>2012-08-21T09:14:52Z</time>
      </trkpt>
      <trkpt lat="47.2855" lon="4.9566">
        <ele>454.859</ele>
        <time>2012-08-21T09:15:03Z</time>
      </trkpt>
      <trkpt lat="47.28558" lon="4.9568">
        <ele>456.173</ele>
        <time>2012-08-21T09:15:14Z</time>
      </trkpt>
      <trkpt lat="47.28565" lon="4.957">
        <ele>455.584</ele>
        <time>2012-08-21T09:15:25Z</time>
      </trkpt>
      <trkpt lat="47.28572" lon="4.9572">
        <ele>456.433</ele>
        <time>2012-08-21T09:15:36Z</time>
      </trkpt>
      <trkpt lat="47.2858" lon="4.95742">
        <ele>456.769</ele>
        <time>2012-08-21T09:15:47Z</time>
      </trkpt>
      <trkpt lat="47.28585" lon="4.95765">
        <ele>456.248</ele>
        <time>2012-08-21T09:15:58Z</time>
      </trkpt>
      <trkpt lat="47.28592" lon="4.95788">
        <ele>456.006</ele>
        <time>2012-08-21T09:16:09Z</time>
      </trkpt>
      <trkpt lat="47.28597" lon="4.95808">
        <ele>454.941</ele>
        <time>2012-08-21T09:16:20Z</time>
      </trkpt>
      <trkpt lat="47.28598" lon="4.95833">
        <ele>454.094</ele>
        <time>2012-08-21T09:16:31Z</time>
      </trkpt>
      <trkpt lat="47.28602" lon="4.95853">
        <ele>454.735</ele>
        <time>2012-08-21T09:16:42Z</time>
      </trkpt>
      <trkpt lat="47.28603" lon="4.95878">
        <ele>454.483</ele>
        <time>2012-08-21T09:16:53Z</time>
      </trkpt>
      <trkpt lat="47.28608" lon="4.959">
        <ele>453.944</ele>
        <time>2012-08-21T09:17:04Z</time>
      </trkpt>
      <trkpt lat="47.28613" lon="4.9592">
        <ele>436</ele>
        <time>2012-08-21T09:17:15Z</time>
      </trkpt>
      <trkpt lat="47.28617" lon="4.95943">
        <ele>452.977</ele>
        <time>2012-08-21T09:17:26Z</time>
      </trkpt>
      <trkpt lat="47.28623" lon="4.95965">
        <ele>453.203</ele>
        <time>2012-08-21T09:17:37Z</time>
      </trkpt>
      <trkpt lat="47.28625" lon="4.95983">
        <ele>453.215</ele>
        <time>2012-08-21T09:17:48Z</time>
      </trkpt>
      <trkpt lat="47.2863" lon="4.96007">
        <ele>451.18</ele>
        <time>2012-08-21T09:17:59Z</time>
      </trkpt>
      <trkpt lat="47.28633" lon="4.96025">
        <ele>451.253</ele>
        <time>2012-08-21T09:18:10Z</time>
      </trkpt>
      <trkpt lat="47.28637" lon="4.96043">
        <ele>449.119</ele>
        <time>2012-08-21T09:18:21Z</time>
      </trkpt>
      <trkpt lat="47.2864" lon="4.96067">
        <ele>448.418</ele>
        <time>2012-08-21T09:18:32Z</time>
      </trkpt>
      <trkpt lat="47.28645" lon="4.96087">
        <ele>447.749</ele>
        <time>2012-08-21T09:18:43Z</time>
      </trkpt>
      <trkpt lat="47.28647" lon="4.96107">
        <ele>449.117</ele>
        <time>2012-08-21T09:18:54Z</time>
      </trkpt>
      <trkpt lat="47.2865" lon="4.96123">
        <ele>448.147</ele>
        <time>2012-08-21T09:19:05Z</time>
      </trkpt>
      <trkpt lat="47.28653" lon="4.96143">
        <ele>447.395</ele>
        <time>2012-08-21T09:19:16Z</time>
      </trkpt>
      <trkpt lat="47.28657" lon="4.96165">
        <ele>449.81</ele>
        <time>2012-08-21T09:19:27Z</time>
      </trkpt>
      <trkpt lat="47.28657" lon="4.9619">
        <ele>449.939</ele>
        <time>2012-08-21T09:19:38Z</time>
      </trkpt>
      <trkpt lat="47.28657" lon="4.96215">
        <ele>447.517</ele>
        <time>2012-08-21T09:19:49Z</time>
      </trkpt>
      <trkpt lat="47.2866" lon="4.96238">
        <ele>445.91</ele>
        <time>2012-08-21T09:20:00Z</time>
      </trkpt>
      <trkpt lat="47.28668" lon="4.96258">
        <ele>444.187</ele>
        <time>2012-08-21T09:20:11Z</time>
      </trkpt>
      <trkpt lat="47.28675" lon="4.96275">
        <ele>444.571</ele>
        <time>2012-08-21T09:20:22Z</time>
      </trkpt>
      <trkpt lat="47.28682" lon="4.96292">
        <ele>445.731</ele>
        <time>2012-08-21T09:20:33Z</time>
      </trkpt>
      <trkpt lat="47.2869" lon="4.96307">
        <ele>445.952</ele>
        <time>2012-08-21T09:20:44Z</time>
      </trkpt>
      <trkpt lat="47.28695" lon="4.96327">
        <ele>447.002</ele>
        <time>2012-08-21T09:20:55Z</time>
      </trkpt>
      <trkpt lat="47.28697" lon="4.96348">
        <ele>447.752</ele>
        <time>2012-08-21T09:21:06Z</time>
      </trkpt>
      <trkpt lat="47.28703" lon="4.96362">
        <ele>446.064</ele>
        <time>2012-08-21T09:21:17Z</time>
      </trkpt>
      <trkpt lat="47.2871" lon="4.96382">
        <ele>443.241</ele>
        <time>2012-08-21T09:21:28Z</time>
      </trkpt>
      <trkpt lat="47.2872" lon="4.96403">
        <ele>439.657</ele>
        <time>2012-08-21T09:21:39Z</time>
      </trkpt>
      <trkpt lat="47.28728" lon="4.96418">
        <ele>438.091</ele>
        <time>2012-08-21T09:21:50Z</time>
      </trkpt>
      <trkpt lat="47.2873" lon="4.9644">
        <ele>436.541</ele>
        <time>2012-08-21T09:22:01Z</time>
      </trkpt>
      <trkpt lat="47.28728" lon="4.96458">
        <ele>435.865</ele>
        <time>2012-08-21T09:22:12Z</time>
      </trkpt>
      <trkpt lat="47.2873" lon="4.96477">
        <ele>426.2</ele>
        <time>2012-08-21T09:22:23Z</time>
      </trkpt>
      <trkpt lat="47.2873" lon="4.965">
        <ele>436.872</ele>
        <time>2012-08-21T09:22:34Z</time>
      </trkpt>
      <trkpt lat="47.28727" lon="4.9652">
        <ele>436.757</ele>
        <time>2012-08-21T09:22:45Z</time>
      </trkpt>
      <trkpt lat="47.28725" lon="4.96543">
        <ele>435.198</ele>
        <time>2012-08-21T09:22:56Z</time>
      </trkpt>
      <trkpt lat="47.28725" lon="4.96563">
        <ele>435.099</ele>
        <time>2012-08-21T09:23:07Z</time>
      </trkpt>
      <trkpt lat="47.28735" lon="4.96572">
        <ele>436.771</ele>
        <time>2012-08-21T09:23:18Z</time>
      </trkpt>
      <trkpt lat="47.28748" lon="4.96578">
        <ele>437.771</ele>
        <time>2012-08-21T09:23:29Z</time>
      </trkpt>
      <trkpt lat="47.28758" lon="4.96582">
        <ele>438.589</ele>
        <time>2012-08-21T09:23:40Z</time>
      </trkpt>
      <trkpt lat="47.28765" lon="4.96587">
        <ele>438.477</ele>
        <time>2012-08-21T09:23:51Z</time>
      </trkpt>
      <trkpt lat="47.28777" lon="4.96593">
        <ele>439.313</ele>
        <time>2012-08-21T09:24:02Z</time>
      </trkpt>
      <trkpt lat="47.28788" lon="4.96598">
        <ele>440.054</ele>
        <time>2012-08-21T09:24:13Z</time>
      </trkpt>
      <trkpt lat="47.28802" lon="4.96603">
        <ele>440.557</ele>
        <time>2012-08-21T09:24:24Z</time>
      </trkpt>
      <trkpt lat="47.28812" lon="4.96608">
        <ele>442.978</ele>
        <time>2012-08-21T09:24:35Z</time>
      </trkpt>
      <trkpt lat="47.28828" lon="4.96613">
        <ele>442.632</ele>
        <time>2012-08-21T09:24:46Z</time>
      </trkpt>
      <trkpt lat="47.28842" lon="4.96618">
        <ele>443.326</ele>
        <time>2012-08-21T09:24:57Z</time>
      </trkpt>
      <trkpt lat="47.28855" lon="4.96625">
        <ele>445.222</ele>
        <time>2012-08-21T09:25:08Z</time>
      </trkpt>
      <trkpt lat="47.2887" lon="4.96633">
        <ele>445.841</ele>
        <time>2012-08-21T09:25:19Z</time>
      </trkpt>
      <trkpt lat="47.28882" lon="4.96643">
        <ele>446.578</ele>
        <time>2012-08-21T09:25:30Z</time>
      </trkpt>
      <trkpt lat="47.28895" lon="4.96647">
        <ele>446.599</ele>
        <time>2012-08-21T09:25:41Z</time>
      </trkpt>
      <trkpt lat="47.28905" lon="4.9665">
        <ele>425</ele>
        <time>2012-08-21T09:25:52Z</time>
      </trkpt>
      <trkpt lat="47.28925" lon="4.96662">
        <ele>444.359</ele>
        <time>2012-08-21T09:26:03Z</time>
      </trkpt>
      <trkpt lat="47.28937" lon="4.96667">
        <ele>443.877</ele>
        <time>2012-08-21T09:26:14Z</time>
      </trkpt>
      <trkpt lat="47.28952" lon="4.96672">
        <ele>442.271</ele>
        <time>2012-08-21T09:26:25Z</time>
      </trkpt>
      <trkpt lat="47.28968" lon="4.96673">
        <ele>442.497</ele>
        <time>2012-08-21T09:26:36Z</time>
      </trkpt>
      <trkpt lat="47.28982" lon="4.96682">
        <ele>442.96</ele>
        <time>2012-08-21T09:26:47Z</time>
      </trkpt>
      <trkpt lat="47.28997" lon="4.96687">
        <ele>441.058</ele>
        <time>2012-08-21T09:26:58Z</time>
      </trkpt>
      <trkpt lat="47.29013" lon="4.96695">
        <ele>439.752</ele>
        <time>2012-08-21T09:27:09Z</time>
      </trkpt>
      <trkpt lat="47.29028" lon="4.96702">
        <ele>437.622</ele>
        <time>2012-08-21T09:27:20Z</time>
      </trkpt>
      <trkpt lat="47.29045" lon="4.96705">
        <ele>433.982</ele>
        <time>2012-08-21T09:27:31Z</time>
      </trkpt>
      <trkpt lat="47.29058" lon="4.96712">
        <ele>432.342</ele>
        <time>2012-08-21T09:27:42Z</time>
      </trkpt>
      <trkpt lat="47.29075" lon="4.96715">
        <ele>432.186</ele>
        <time>2012-08-21T09:27:53Z</time>
      </trkpt>
      <trkpt lat="47.29087" lon="4.96722">
        <ele>429.323</ele>
        <time>2012-08-21T09:28:04Z</time>
      </trkpt>
      <trkpt lat="47.29102" lon="4.96725">
        <ele>428.193</ele>
        <time>2012-08-21T09:28:15Z</time>
      </trkpt>
      <trkpt lat="47.29113" lon="4.96728">
        <ele>428.959</ele>
        <time>2012-08-21T09:28:26Z</time>
      </trkpt>
      <trkpt lat="47.29123" lon="4.96732">
        <ele>428.99</ele>
        <time>2012-08-21T09:28:37Z</time>
      </trkpt>
      <trkpt lat="47.29128" lon="4.96733">
        <ele>428.782</ele>
        <time>2012-08-21T09:28:48Z</time>
      </trkpt>
      <trkpt lat="47.29132" lon="4.96733">
        <ele>428.218</ele>
        <time>2012-08-21T09:28:59Z</time>
      </trkpt>
      <trkpt lat="47.29138" lon="4.96735">
        <ele>426.926</ele>
        <time>2012-08-21T09:29:10Z</time>
      </trkpt>
      <trkpt lat="47.29138" lon="4.96735">
        <ele>426.91</ele>
        <time>2012-08-21T09:29:21Z</time>
      </trkpt>
      <trkpt lat="47.29142" lon="4.96737">
        <ele>426.347</ele>
        <time>2012-08-21T09:29:32Z</time>
      </trkpt>
      <trkpt lat="47.29145" lon="4.96738">
        <ele>425.101</ele>
        <time>2012-08-21T09:29:43Z</time>
      </trkpt>
      <trkpt lat="47.29148" lon="4.96738">
        <ele>424.497</ele>
        <time>2012-08-21T09:29:54Z</time>
      </trkpt>
      <trkpt lat="47.29153" lon="4.9674">
        <ele>423.439</ele>
        <time>2012-08-21T09:30:05Z</time>
      </trkpt>
      <trkpt lat="47.2916" lon="4.96743">
        <ele>422.122</ele>
        <time>2012-08-21T09:30:16Z</time>
      </trkpt>
      <trkpt lat="47.29163" lon="4.96747">
        <ele>422.237</ele>
        <time>2012-08-21T09:30:27Z</time>
      </trkpt>
      <trkpt lat="47.29172" lon="4.96755">
        <ele>420.051</ele>
        <time>2012-08-21T09:30:38Z</time>
      </trkpt>
      <trkpt lat="47.29178" lon="4.96765">
        <ele>418.266</ele>
        <time>2012-08-21T09:30:49Z</time>
      </trkpt>
      <trkpt lat="47.29185" lon="4.96775">
        <ele>416.417</ele>
        <time>2012-08-21T09:31:00Z</time>
      </trkpt>
      <trkpt lat="47.29188" lon="4.9679">
        <ele>416.54</ele>
        <time>2012-08-21T09:31:11Z</time>
      </trkpt>
      <trkpt lat="47.29198" lon="4.96802">
        <ele>415.482</ele>
        <time>2012-08-21T09:31:22Z</time>
      </trkpt>
      <trkpt lat="47.29203" lon="4.96813">
        <ele>413.449</ele>
        <time>2012-08-21T09:31:33Z</time>
      </trkpt>
      <trkpt lat="47.29208" lon="4.96825">
        <ele>411.396</ele>
        <time>2012-08-21T09:31:44Z</time>
      </trkpt>
      <trkpt lat="47.2921" lon="4.96835">
        <ele>410.179</ele>
        <time>2012-08-21T09:31:55Z</time>
      </trkpt>
      <trkpt lat="47.29213" lon="4.96843">
        <ele>407.984</ele>
        <time>2012-08-21T09:32:06Z</time>
      </trkpt>
      <trkpt lat="47.2922" lon="4.96857">
        <ele>406.165</ele>
        <time>2012-08-21T09:32:17Z</time>
      </trkpt>
      <trkpt lat="47.29223" lon="4.96867">
        <ele>404.747</ele>
        <time>2012-08-21T09:32:28Z</time>
      </trkpt>
      <trkpt lat="47.29228" lon="4.96882">
        <ele>400.109</ele>
        <time>2012-08-21T09:32:39Z</time>
      </trkpt>
      <trkpt lat="47.29235" lon="4.9689">
        <ele>397.886</ele>
        <time>2012-08-21T09:32:50Z</time>
      </trkpt>
      <trkpt lat="47.29235" lon="4.96893">
        <ele>397.961</ele>
        <time>2012-08-21T09:33:01Z</time>
      </trkpt>
      <trkpt lat="47.2924" lon="4.96905">
        <ele>396.639</ele>
        <time>2012-08-21T09:33:12Z</time>
      </trkpt>
      <trkpt lat="47.29243" lon="4.96917">
        <ele>396.071</ele>
        <time>2012-08-21T09:33:23Z</time>
      </trkpt>
      <trkpt lat="47.29245" lon="4.96922">
        <ele>366.9</ele>
        <time>2012-08-21T09:33:34Z</time>
      </trkpt>
      <trkpt lat="47.29252" lon="4.9694">
        <ele>394.929</ele>
        <time>2012-08-21T09:33:45Z</time>
      </trkpt>
      <trkpt lat="47.29258" lon="4.96953">
        <ele>392.031</ele>
        <time>2012-08-21T09:33:56Z</time>
      </trkpt>
      <trkpt lat="47.29265" lon="4.96963">
        <ele>358.6</ele>
        <time>2012-08-21T09:34:07Z</time>
      </trkpt>
      <trkpt lat="47.29272" lon="4.9698">
        <ele>388.957</ele>
        <time>2012-08-21T09:34:18Z</time>
      </trkpt>
      <trkpt lat="47.2928" lon="4.96997">
        <ele>385.705</ele>
        <time>2012-08-21T09:34:29Z</time>
      </trkpt>
      <trkpt lat="47.29285" lon="4.97012">
        <ele>382.043</ele>
        <time>2012-08-21T09:34:40Z</time>
      </trkpt>
      <trkpt lat="47.29293" lon="4.97025">
        <ele>380.992</ele>
        <time>2012-08-21T09:34:51Z</time>
      </trkpt>
      <trkpt lat="47.29298" lon="4.97033">
        <ele>379.633</ele>
        <time>2012-08-21T09:35:02Z</time>
      </trkpt>
      <trkpt lat="47.293" lon="4.97043">
        <ele>377.464</ele>
        <time>2012-08-21T09:35:13Z</time>
      </trkpt>
      <trkpt lat="47.293" lon="4.97045">
        <ele>377.254</ele>
        <time>2012-08-21T09:35:24Z</time>
      </trkpt>
      <trkpt lat="47.29302" lon="4.97047">
        <ele>377.248</ele>
        <time>2012-08-21T09:35:35Z</time>
      </trkpt>
      <trkpt lat="47.29302" lon="4.97047">
        <ele>377.084</ele>
        <time>2012-08-21T09:35:46Z</time>
      </trkpt>
      <trkpt lat="47.29302" lon="4.97047">
        <ele>377.084</ele>
        <time>2012-08-21T09:35:57Z</time>
      </trkpt>
      <trkpt lat="47.29302" lon="4.97047">
        <ele>377.084</ele>
        <time>2012-08-21T09:36:08Z</time>
      </trkpt>
      <trkpt lat="47.29303" lon="4.97053">
        <ele>375.532</ele>
        <time>2012-08-21T09:36:19Z</time>
      </trkpt>
      <trkpt lat="47.29302" lon="4.97068">
        <ele>374.15</ele>
        <time>2012-08-21T09:36:30Z</time>
      </trkpt>
      <trkpt lat="47.293" lon="4.97083">
        <ele>372.378</ele>
        <time>2012-08-21T09:36:41Z</time>
      </trkpt>
      <trkpt lat="47.29295" lon="4.971">
        <ele>371.485</ele>
        <time>2012-08-21T09:36:52Z</time>
      </trkpt>
      <trkpt lat="47.29287" lon="4.97122">
        <ele>370.571</ele>
        <time>2012-08-21T09:37:03Z</time>
      </trkpt>
      <trkpt lat="47.29285" lon="4.97138">
        <ele>371.648</ele>
        <time>2012-08-21T09:37:14Z</time>
      </trkpt>
      <trkpt lat="47.2928" lon="4.97155">
        <ele>371.343</ele>
        <time>2012-08-21T09:37:25Z</time>
      </trkpt>
      <trkpt lat="47.29273" lon="4.97172">
        <ele>371.053</ele>
        <time>2012-08-21T09:37:36Z</time>
      </trkpt>
      <trkpt lat="47.29265" lon="4.97187">
        <ele>369.888</ele>
        <time>2012-08-21T09:37:47Z</time>
      </trkpt>
      <trkpt lat="47.2925" lon="4.97202">
        <ele>367.837</ele>
        <time>2012-08-21T09:37:58Z</time>
      </trkpt>
      <trkpt lat="47.2924" lon="4.97213">
        <ele>365.217</ele>
        <time>2012-08-21T09:38:09Z</time>
      </trkpt>
      <trkpt lat="47.29237" lon="4.97227">
        <ele>365.776</ele>
        <time>2012-08-21T09:38:20Z</time>
      </trkpt>
      <trkpt lat="47.29225" lon="4.97242">
        <ele>365.632</ele>
        <time>2012-08-21T09:38:31Z</time>
      </trkpt>
      <trkpt lat="47.29212" lon="4.97252">
        <ele>366.599</ele>
        <time>2012-08-21T09:38:42Z</time>
      </trkpt>
      <trkpt lat="47.29203" lon="4.97263">
        <ele>328.4</ele>
        <time>2012-08-21T09:38:53Z</time>
      </trkpt>
      <trkpt lat="47.29192" lon="4.97283">
        <ele>364.035</ele>
        <time>2012-08-21T09:39:04Z</time>
      </trkpt>
      <trkpt lat="47.29182" lon="4.97295">
        <ele>363.628</ele>
        <time>2012-08-21T09:39:15Z</time>
      </trkpt>
      <trkpt lat="47.29167" lon="4.97313">
        <ele>362.779</ele>
        <time>2012-08-21T09:39:26Z</time>
      </trkpt>
      <trkpt lat="47.29155" lon="4.9733">
        <ele>361.972</ele>
        <time>2012-08-21T09:39:37Z</time>
      </trkpt>
      <trkpt lat="47.29143" lon="4.97347">
        <ele>363.59</ele>
        <time>2012-08-21T09:39:48Z</time>
      </trkpt>
      <trkpt lat="47.29125" lon="4.97367">
        <ele>363.001</ele>
        <time>2012-08-21T09:39:59Z</time>
      </trkpt>
      <trkpt lat="47.29112" lon="4.97385">
        <ele>361.83</ele>
        <time>2012-08-21T09:40:10Z</time>
      </trkpt>
      <trkpt lat="47.29102" lon="4.974">
        <ele>362.147</ele>
        <time>2012-08-21T09:40:21Z</time>
      </trkpt>
      <trkpt lat="47.29095" lon="4.97413">
        <ele>361.787</ele>
        <time>2012-08-21T09:40:32Z</time>
      </trkpt>
      <trkpt lat="47.29087" lon="4.97425">
        <ele>360.699</ele>
        <time>2012-08-21T09:40:43Z</time>
      </trkpt>
      <trkpt lat="47.29073" lon="4.97443">
        <ele>359.177</ele>
        <time>2012-08-21T09:40:54Z</time>
      </trkpt>
      <trkpt lat="47.29067" lon="4.97457">
        <ele>354.106</ele>
        <time>2012-08-21T09:41:05Z</time>
      </trkpt>
      <trkpt lat="47.2906" lon="4.97477">
        <ele>351.585</ele>
        <time>2012-08-21T09:41:16Z</time>
      </trkpt>
      <trkpt lat="47.2905" lon="4.97492">
        <ele>348.324</ele>
        <time>2012-08-21T09:41:27Z</time>
      </trkpt>
      <trkpt lat="47.29037" lon="4.97505">
        <ele>344.478</ele>
        <time>2012-08-21T09:41:38Z</time>
      </trkpt>
      <trkpt lat="47.29032" lon="4.97523">
        <ele>342.219</ele>
        <time>2012-08-21T09:41:49Z</time>
      </trkpt>
      <trkpt lat="47.29027" lon="4.9754">
        <ele>318.1</ele>
        <time>2012-08-21T09:42:00Z</time>
      </trkpt>
      <trkpt lat="47.2902" lon="4.97557">
        <ele>341.151</ele>
        <time>2012-08-21T09:42:11Z</time>
      </trkpt>
      <trkpt lat="47.29015" lon="4.97577">
        <ele>341.07</ele>
        <time>2012-08-21T09:42:22Z</time>
      </trkpt>
      <trkpt lat="47.29008" lon="4.97595">
        <ele>342.064</ele>
        <time>2012-08-21T09:42:33Z</time>
      </trkpt>
      <trkpt lat="47.29" lon="4.97617">
        <ele>343.61</ele>
        <time>2012-08-21T09:42:44Z</time>
      </trkpt>
      <trkpt lat="47.28998" lon="4.97635">
        <ele>346.611</ele>
        <time>2012-08-21T09:42:55Z</time>
      </trkpt>
      <trkpt lat="47.28993" lon="4.9765">
        <ele>346.131</ele>
        <time>2012-08-21T09:43:06Z</time>
      </trkpt>
      <trkpt lat="47.28987" lon="4.97663">
        <ele>344.01</ele>
        <time>2012-08-21T09:43:17Z</time>
      </trkpt>
      <trkpt lat="47.28977" lon="4.97677">
        <ele>345.048</ele>
        <time>2012-08-21T09:43:28Z</time>
      </trkpt>
      <trkpt lat="47.28965" lon="4.97695">
        <ele>345.935</ele>
        <time>2012-08-21T09:43:39Z</time>
      </trkpt>
      <trkpt lat="47.28953" lon="4.97712">
        <ele>345.193</ele>
        <time>2012-08-21T09:43:50Z</time>
      </trkpt>
      <trkpt lat="47.2894" lon="4.97728">
        <ele>346.044</ele>
        <time>2012-08-21T09:44:01Z</time>
      </trkpt>
      <trkpt lat="47.28928" lon="4.9774">
        <ele>344.19</ele>
        <time>2012-08-21T09:44:12Z</time>
      </trkpt>
      <trkpt lat="47.2892" lon="4.97755">
        <ele>344.648</ele>
        <time>2012-08-21T09:44:23Z</time>
      </trkpt>
      <trkpt lat="47.28908" lon="4.97773">
        <ele>343.655</ele>
        <time>2012-08-21T09:44:34Z</time>
      </trkpt>
      <trkpt lat="47.28902" lon="4.97787">
        <ele>340.982</ele>
        <time>2012-08-21T09:44:45Z</time>
      </trkpt>
      <trkpt lat="47.2889" lon="4.97802">
        <ele>312.5</ele>
        <time>2012-08-21T09:44:56Z</time>
      </trkpt>
      <trkpt lat="47.2888" lon="4.97822">
        <ele>312.2</ele>
        <time>2012-08-21T09:45:07Z</time>
      </trkpt>
      <trkpt lat="47.28873" lon="4.97835">
        <ele>337.856</ele>
        <time>2012-08-21T09:45:18Z</time>
      </trkpt>
      <trkpt lat="47.28862" lon="4.97852">
        <ele>311.1</ele>
        <time>2012-08-21T09:45:29Z</time>
      </trkpt>
      <trkpt lat="47.28847" lon="4.97865">
        <ele>341.34</ele>
        <time>2012-08-21T09:45:40Z</time>
      </trkpt>
      <trkpt lat="47.28842" lon="4.97877">
        <ele>342.729</ele>
        <time>2012-08-21T09:45:51Z</time>
      </trkpt>
      <trkpt lat="47.28833" lon="4.97892">
        <ele>344.564</ele>
        <time>2012-08-21T09:46:02Z</time>
      </trkpt>
      <trkpt lat="47.28823" lon="4.979">
        <ele>346.913</ele>
        <time>2012-08-21T09:46:13Z</time>
      </trkpt>
      <trkpt lat="47.28812" lon="4.97915">
        <ele>347.905</ele>
        <time>2012-08-21T09:46:24Z</time>
      </trkpt>
      <trkpt lat="47.28802" lon="4.97925">
        <ele>346.157</ele>
        <time>2012-08-21T09:46:35Z</time>
      </trkpt>
      <trkpt lat="47.28793" lon="4.97932">
        <ele>344.274</ele>
        <time>2012-08-21T09:46:46Z</time>
      </trkpt>
      <trkpt lat="47.28782" lon="4.9794">
        <ele>343.235</ele>
        <time>2012-08-21T09:46:57Z</time>
      </trkpt>
      <trkpt lat="47.2877" lon="4.97948">
        <ele>341.356</ele>
        <time>2012-08-21T09:47:08Z</time>
      </trkpt>
      <trkpt lat="47.2875" lon="4.97963">
        <ele>345.084</ele>
        <time>2012-08-21T09:47:19Z</time>
      </trkpt>
      <trkpt lat="47.28737" lon="4.97972">
        <ele>344.814</ele>
        <time>2012-08-21T09:47:30Z</time>
      </trkpt>
      <trkpt lat="47.28722" lon="4.97982">
        <ele>343.622</ele>
        <time>2012-08-21T09:47:41Z</time>
      </trkpt>
      <trkpt lat="47.28707" lon="4.97992">
        <ele>343.188</ele>
        <time>2012-08-21T09:47:52Z</time>
      </trkpt>
      <trkpt lat="47.28695" lon="4.98">
        <ele>345.679</ele>
        <time>2012-08-21T09:48:03Z</time>
      </trkpt>
      <trkpt lat="47.28683" lon="4.98012">
        <ele>344.969</ele>
        <time>2012-08-21T09:48:14Z</time>
      </trkpt>
      <trkpt lat="47.28667" lon="4.98028">
        <ele>343.619</ele>
        <time>2012-08-21T09:48:25Z</time>
      </trkpt>
      <trkpt lat="47.28658" lon="4.9804">
        <ele>343.123</ele>
        <time>2012-08-21T09:48:36Z</time>
      </trkpt>
      <trkpt lat="47.28645" lon="4.98053">
        <ele>305.6</ele>
        <time>2012-08-21T09:48:47Z</time>
      </trkpt>
      <trkpt lat="47.28635" lon="4.98063">
        <ele>344.339</ele>
        <time>2012-08-21T09:48:58Z</time>
      </trkpt>
      <trkpt lat="47.28623" lon="4.98073">
        <ele>344.039</ele>
        <time>2012-08-21T09:49:09Z</time>
      </trkpt>
      <trkpt lat="47.2861" lon="4.98087">
        <ele>342.033</ele>
        <time>2012-08-21T09:49:20Z</time>
      </trkpt>
      <trkpt lat="47.286" lon="4.981">
        <ele>304.9</ele>
        <time>2012-08-21T09:49:31Z</time>
      </trkpt>
      <trkpt lat="47.28583" lon="4.98115">
        <ele>338.265</ele>
        <time>2012-08-21T09:49:42Z</time>
      </trkpt>
      <trkpt lat="47.28572" lon="4.98123">
        <ele>335.708</ele>
        <time>2012-08-21T09:49:53Z</time>
      </trkpt>
      <trkpt lat="47.28565" lon="4.98137">
        <ele>336.442</ele>
        <time>2012-08-21T09:50:04Z</time>
      </trkpt>
      <trkpt lat="47.28557" lon="4.98145">
        <ele>335.787</ele>
        <time>2012-08-21T09:50:15Z</time>
      </trkpt>
      <trkpt lat="47.28543" lon="4.9816">
        <ele>337.541</ele>
        <time>2012-08-21T09:50:26Z</time>
      </trkpt>
      <trkpt lat="47.28523" lon="4.98167">
        <ele>337.005</ele>
        <time>2012-08-21T09:50:37Z</time>
      </trkpt>
      <trkpt lat="47.28508" lon="4.98175">
        <ele>339.685</ele>
        <time>2012-08-21T09:50:48Z</time>
      </trkpt>
      <trkpt lat="47.2849" lon="4.98188">
        <ele>339.947</ele>
        <time>2012-08-21T09:50:59Z</time>
      </trkpt>
      <trkpt lat="47.28475" lon="4.98203">
        <ele>337.731</ele>
        <time>2012-08-21T09:51:10Z</time>
      </trkpt>
      <trkpt lat="47.28455" lon="4.98227">
        <ele>330.841</ele>
        <time>2012-08-21T09:51:21Z</time>
      </trkpt>
      <trkpt lat="47.28443" lon="4.98245">
        <ele>326.561</ele>
        <time>2012-08-21T09:51:32Z</time>
      </trkpt>
      <trkpt lat="47.28428" lon="4.98262">
        <ele>324.27</ele>
        <time>2012-08-21T09:51:43Z</time>
      </trkpt>
      <trkpt lat="47.28415" lon="4.98277">
        <ele>325.117</ele>
        <time>2012-08-21T09:51:54Z</time>
      </trkpt>
      <trkpt lat="47.28402" lon="4.98295">
        <ele>323.775</ele>
        <time>2012-08-21T09:52:05Z</time>
      </trkpt>
      <trkpt lat="47.2839" lon="4.98313">
        <ele>321.368</ele>
        <time>2012-08-21T09:52:16Z</time>
      </trkpt>
      <trkpt lat="47.28377" lon="4.98323">
        <ele>321.227</ele>
        <time>2012-08-21T09:52:27Z</time>
      </trkpt>
      <trkpt lat="47.28363" lon="4.98333">
        <ele>318.631</ele>
        <time>2012-08-21T09:52:38Z</time>
      </trkpt>
      <trkpt lat="47.28353" lon="4.98342">
        <ele>318.031</ele>
        <time>2012-08-21T09:52:49Z</time>
      </trkpt>
      <trkpt lat="47.28342" lon="4.9835">
        <ele>317.758</ele>
        <time>2012-08-21T09:53:00Z</time>
      </trkpt>
      <trkpt lat="47.28327" lon="4.98358">
        <ele>315.681</ele>
        <time>2012-08-21T09:53:11Z</time>
      </trkpt>
      <trkpt lat="47.28312" lon="4.98373">
        <ele>312.546</ele>
        <time>2012-08-21T09:53:22Z</time>
      </trkpt>
      <trkpt lat="47.28298" lon="4.9839">
        <ele>310.107</ele>
        <time>2012-08-21T09:53:33Z</time>
      </trkpt>
      <trkpt lat="47.28288" lon="4.98408">
        <ele>309.814</ele>
        <time>2012-08-21T09:53:44Z</time>
      </trkpt>
      <trkpt lat="47.28283" lon="4.98427">
        <ele>308.91</ele>
        <time>2012-08-21T09:53:55Z</time>
      </trkpt>
      <trkpt lat="47.2828" lon="4.98433">
        <ele>308.2</ele>
        <time>2012-08-21T09:54:06Z</time>
      </trkpt>
      <trkpt lat="47.28277" lon="4.98457">
        <ele>306.877</ele>
        <time>2012-08-21T09:54:17Z</time>
      </trkpt>
      <trkpt lat="47.28288" lon="4.98457">
        <ele>305.393</ele>
        <time>2012-08-21T09:54:28Z</time>
      </trkpt>
      <trkpt lat="47.28298" lon="4.98452">
        <ele>303.567</ele>
        <time>2012-08-21T09:54:39Z</time>
      </trkpt>
      <trkpt lat="47.2831" lon="4.98438">
        <ele>302.179</ele>
        <time>2012-08-21T09:54:50Z</time>
      </trkpt>
      <trkpt lat="47.28322" lon="4.98432">
        <ele>303.263</ele>
        <time>2012-08-21T09:55:01Z</time>
      </trkpt>
      <trkpt lat="47.28333" lon="4.98425">
        <ele>304.301</ele>
        <time>2012-08-21T09:55:12Z</time>
      </trkpt>
      <trkpt lat="47.28347" lon="4.98425">
        <ele>306.757</ele>
        <time>2012-08-21T09:55:23Z</time>
      </trkpt>
      <trkpt lat="47.28357" lon="4.98433">
        <ele>309.273</ele>
        <time>2012-08-21T09:55:34Z</time>
      </trkpt>
      <trkpt lat="47.28365" lon="4.98443">
        <ele>311.884</ele>
        <time>2012-08-21T09:55:45Z</time>
      </trkpt>
      <trkpt lat="47.28368" lon="4.9846">
        <ele>313.193</ele>
        <time>2012-08-21T09:55:56Z</time>
      </trkpt>
      <trkpt lat="47.28368" lon="4.98475">
        <ele>315.267</ele>
        <time>2012-08-21T09:56:07Z</time>
      </trkpt>
      <trkpt lat="47.28367" lon="4.9849">
        <ele>316.855</ele>
        <time>2012-08-21T09:56:18Z</time>
      </trkpt>
      <trkpt lat="47.2836" lon="4.98508">
        <ele>317.961</ele>
        <time>2012-08-21T09:56:29Z</time>
      </trkpt>
      <trkpt lat="47.28353" lon="4.98525">
        <ele>319.631</ele>
        <time>2012-08-21T09:56:40Z</time>
      </trkpt>
      <trkpt lat="47.28348" lon="4.98542">
        <ele>320.35</ele>
        <time>2012-08-21T09:56:51Z</time>
      </trkpt>
      <trkpt lat="47.28345" lon="4.98563">
        <ele>319.824</ele>
        <time>2012-08-21T09:57:02Z</time>
      </trkpt>
      <trkpt lat="47.28342" lon="4.98585">
        <ele>316.487</ele>
        <time>2012-08-21T09:57:13Z</time>
      </trkpt>
      <trkpt lat="47.28343" lon="4.98603">
        <ele>315.498</ele>
        <time>2012-08-21T09:57:24Z</time>
      </trkpt>
      <trkpt lat="47.28345" lon="4.98627">
        <ele>315.56</ele>
        <time>2012-08-21T09:57:35Z</time>
      </trkpt>
      <trkpt lat="47.28345" lon="4.98643">
        <ele>317.58</ele>
        <time>2012-08-21T09:57:46Z</time>
      </trkpt>
      <trkpt lat="47.28352" lon="4.98658">
        <ele>309.3</ele>
        <time>2012-08-21T09:57:57Z</time>
      </trkpt>
      <trkpt lat="47.28353" lon="4.98675">
        <ele>320.944</ele>
        <time>2012-08-21T09:58:08Z</time>
      </trkpt>
      <trkpt lat="47.28348" lon="4.9869">
        <ele>318.742</ele>
        <time>2012-08-21T09:58:19Z</time>
      </trkpt>
      <trkpt lat="47.28342" lon="4.987">
        <ele>307.1</ele>
        <time>2012-08-21T09:58:30Z</time>
      </trkpt>
      <trkpt lat="47.28338" lon="4.98722">
        <ele>319.801</ele>
        <time>2012-08-21T09:58:41Z</time>
      </trkpt>
      <trkpt lat="47.28333" lon="4.98738">
        <ele>305</ele>
        <time>2012-08-21T09:58:52Z</time>
      </trkpt>
      <trkpt lat="47.28332" lon="4.98762">
        <ele>319.436</ele>
        <time>2012-08-21T09:59:03Z</time>
      </trkpt>
      <trkpt lat="47.28333" lon="4.98783">
        <ele>319.75</ele>
        <time>2012-08-21T09:59:14Z</time>
      </trkpt>
      <trkpt lat="47.28337" lon="4.98802">
        <ele>320.075</ele>
        <time>2012-08-21T09:59:25Z</time>
      </trkpt>
      <trkpt lat="47.28342" lon="4.98823">
        <ele>319.375</ele>
        <time>2012-08-21T09:59:36Z</time>
      </trkpt>
      <trkpt lat="47.28347" lon="4.98842">
        <ele>319.864</ele>
        <time>2012-08-21T09:59:47Z</time>
      </trkpt>
      <trkpt lat="47.28352" lon="4.98865">
        <ele>317.836</ele>
        <time>2012-08-21T09:59:58Z</time>
      </trkpt>
      <trkpt lat="47.28358" lon="4.98883">
        <ele>318.042</ele>
        <time>2012-08-21T10:00:09Z</time>
      </trkpt>
      <trkpt lat="47.28365" lon="4.98898">
        <ele>322.156</ele>
        <time>2012-08-21T10:00:20Z</time>
      </trkpt>
      <trkpt lat="47.2837" lon="4.98912">
        <ele>323.068</ele>
        <time>2012-08-21T10:00:31Z</time>
      </trkpt>
      <trkpt lat="47.28372" lon="4.98925">
        <ele>324.671</ele>
        <time>2012-08-21T10:00:42Z</time>
      </trkpt>
      <trkpt lat="47.28373" lon="4.98937">
        <ele>326.081</ele>
        <time>2012-08-21T10:00:53Z</time>
      </trkpt>
      <trkpt lat="47.28378" lon="4.98955">
        <ele>329.355</ele>
        <time>2012-08-21T10:01:04Z</time>
      </trkpt>
      <trkpt lat="47.28383" lon="4.9897">
        <ele>331.486</ele>
        <time>2012-08-21T10:01:15Z</time>
      </trkpt>
      <trkpt lat="47.28385" lon="4.98987">
        <ele>332.324</ele>
        <time>2012-08-21T10:01:26Z</time>
      </trkpt>
      <trkpt lat="47.2839" lon="4.99007">
        <ele>332.474</ele>
        <time>2012-08-21T10:01:37Z</time>
      </trkpt>
      <trkpt lat="47.28393" lon="4.99027">
        <ele>331.875</ele>
        <time>2012-08-21T10:01:48Z</time>
      </trkpt>
      <trkpt lat="47.28403" lon="4.99052">
        <ele>332.12</ele>
        <time>2012-08-21T10:01:59Z</time>
      </trkpt>
      <trkpt lat="47.28407" lon="4.99075">
        <ele>330.654</ele>
        <time>2012-08-21T10:02:10Z</time>
      </trkpt>
      <trkpt lat="47.28407" lon="4.99095">
        <ele>332.243</ele>
        <time>2012-08-21T10:02:21Z</time>
      </trkpt>
      <trkpt lat="47.28412" lon="4.99117">
        <ele>332.048</ele>
        <time>2012-08-21T10:02:32Z</time>
      </trkpt>
      <trkpt lat="47.28417" lon="4.99137">
        <ele>331.551</ele>
        <time>2012-08-21T10:02:43Z</time>
      </trkpt>
      <trkpt lat="47.28423" lon="4.99153">
        <ele>329.129</ele>
        <time>2012-08-21T10:02:54Z</time>
      </trkpt>
      <trkpt lat="47.28425" lon="4.99172">
        <ele>328.32</ele>
        <time>2012-08-21T10:03:05Z</time>
      </trkpt>
      <trkpt lat="47.28428" lon="4.99182">
        <ele>309.6</ele>
        <time>2012-08-21T10:03:16Z</time>
      </trkpt>
      <trkpt lat="47.28435" lon="4.99208">
        <ele>325.687</ele>
        <time>2012-08-21T10:03:27Z</time>
      </trkpt>
      <trkpt lat="47.2845" lon="4.99225">
        <ele>327.729</ele>
        <time>2012-08-21T10:03:38Z</time>
      </trkpt>
      <trkpt lat="47.28455" lon="4.99245">
        <ele>328.624</ele>
        <time>2012-08-21T10:03:49Z</time>
      </trkpt>
      <trkpt lat="47.28467" lon="4.99272">
        <ele>325.119</ele>
        <time>2012-08-21T10:04:00Z</time>
      </trkpt>
      <trkpt lat="47.28478" lon="4.99285">
        <ele>322.368</ele>
        <time>2012-08-21T10:04:11Z</time>
      </trkpt>
      <trkpt lat="47.28492" lon="4.993">
        <ele>320.716</ele>
        <time>2012-08-21T10:04:22Z</time>
      </trkpt>
      <trkpt lat="47.285" lon="4.99315">
        <ele>320.676</ele>
        <time>2012-08-21T10:04:33Z</time>
      </trkpt>
      <trkpt lat="47.28508" lon="4.9933">
        <ele>321.653</ele>
        <time>2012-08-21T10:04:44Z</time>
      </trkpt>
      <trkpt lat="47.28512" lon="4.99342">
        <ele>323.245</ele>
        <time>2012-08-21T10:04:55Z</time>
      </trkpt>
      <trkpt lat="47.28515" lon="4.99352">
        <ele>323.861</ele>
        <time>2012-08-21T10:05:06Z</time>
      </trkpt>
      <trkpt lat="47.28518" lon="4.99362">
        <ele>326.034</ele>
        <time>2012-08-21T10:05:17Z</time>
      </trkpt>
      <trkpt lat="47.28523" lon="4.99375">
        <ele>328.531</ele>
        <time>2012-08-21T10:05:28Z</time>
      </trkpt>
      <trkpt lat="47.28537" lon="4.99398">
        <ele>329.093</ele>
        <time>2012-08-21T10:05:39Z</time>
      </trkpt>
      <trkpt lat="47.28547" lon="4.99412">
        <ele>327.221</ele>
        <time>2012-08-21T10:05:50Z</time>
      </trkpt>
      <trkpt lat="47.28555" lon="4.99418">
        <ele>325.386</ele>
        <time>2012-08-21T10:06:01Z</time>
      </trkpt>
      <trkpt lat="47.2856" lon="4.99428">
        <ele>325.365</ele>
        <time>2012-08-21T10:06:12Z</time>
      </trkpt>
      <trkpt lat="47.28565" lon="4.99442">
        <ele>325.206</ele>
        <time>2012-08-21T10:06:23Z</time>
      </trkpt>
      <trkpt lat="47.28577" lon="4.99453">
        <ele>326.028</ele>
        <time>2012-08-21T10:06:34Z</time>
      </trkpt>
      <trkpt lat="47.2859" lon="4.99467">
        <ele>325.601</ele>
        <time>2012-08-21T10:06:45Z</time>
      </trkpt>
      <trkpt lat="47.28602" lon="4.99483">
        <ele>325.091</ele>
        <time>2012-08-21T10:06:56Z</time>
      </trkpt>
      <trkpt lat="47.28612" lon="4.99493">
        <ele>324.229</ele>
        <time>2012-08-21T10:07:07Z</time>
      </trkpt>
      <trkpt lat="47.28632" lon="4.99503">
        <ele>321.626</ele>
        <time>2012-08-21T10:07:18Z</time>
      </trkpt>
      <trkpt lat="47.28648" lon="4.99512">
        <ele>319.889</ele>
        <time>2012-08-21T10:07:29Z</time>
      </trkpt>
      <trkpt lat="47.28655" lon="4.99517">
        <ele>320.611</ele>
        <time>2012-08-21T10:07:40Z</time>
      </trkpt>
      <trkpt lat="47.28665" lon="4.99522">
        <ele>320.717</ele>
        <time>2012-08-21T10:07:51Z</time>
      </trkpt>
      <trkpt lat="47.28672" lon="4.99523">
        <ele>319.152</ele>
        <time>2012-08-21T10:08:02Z</time>
      </trkpt>
      <trkpt lat="47.28682" lon="4.99538">
        <ele>315.996</ele>
        <time>2012-08-21T10:08:13Z</time>
      </trkpt>
      <trkpt lat="47.28705" lon="4.99548">
        <ele>314.071</ele>
        <time>2012-08-21T10:08:24Z</time>
      </trkpt>
      <trkpt lat="47.2872" lon="4.99557">
        <ele>314.198</ele>
        <time>2012-08-21T10:08:35Z</time>
      </trkpt>
      <trkpt lat="47.2873" lon="4.9956">
        <ele>315.385</ele>
        <time>2012-08-21T10:08:46Z</time>
      </trkpt>
      <trkpt lat="47.28745" lon="4.99568">
        <ele>314.475</ele>
        <time>2012-08-21T10:08:57Z</time>
      </trkpt>
      <trkpt lat="47.2876" lon="4.99572">
        <ele>311.974</ele>
        <time>2012-08-21T10:09:08Z</time>
      </trkpt>
      <trkpt lat="47.28777" lon="4.99578">
        <ele>312.548</ele>
        <time>2012-08-21T10:09:19Z</time>
      </trkpt>
      <trkpt lat="47.28787" lon="4.9959">
        <ele>310.546</ele>
        <time>2012-08-21T10:09:30Z</time>
      </trkpt>
      <trkpt lat="47.28802" lon="4.99598">
        <ele>310.008</ele>
        <time>2012-08-21T10:09:41Z</time>
      </trkpt>
      <trkpt lat="47.28815" lon="4.99598">
        <ele>310.467</ele>
        <time>2012-08-21T10:09:52Z</time>
      </trkpt>
      <trkpt lat="47.28818" lon="4.99597">
        <ele>309.107</ele>
        <time>2012-08-21T10:10:03Z</time>
      </trkpt>
      <trkpt lat="47.28818" lon="4.99597">
        <ele>308.677</ele>
        <time>2012-08-21T10:10:14Z</time>
      </trkpt>
      <trkpt lat="47.28823" lon="4.99602">
        <ele>309.206</ele>
        <time>2012-08-21T10:10:25Z</time>
      </trkpt>
      <trkpt lat="47.28838" lon="4.99605">
        <ele>308.759</ele>
        <time>2012-08-21T10:10:36Z</time>
      </trkpt>
      <trkpt lat="47.28848" lon="4.99612">
        <ele>307.756</ele>
        <time>2012-08-21T10:10:47Z</time>
      </trkpt>
      <trkpt lat="47.28858" lon="4.99613">
        <ele>305.64</ele>
        <time>2012-08-21T10:10:58Z</time>
      </trkpt>
      <trkpt lat="47.28865" lon="4.99628">
        <ele>303.944</ele>
        <time>2012-08-21T10:11:09Z</time>
      </trkpt>
      <trkpt lat="47.28867" lon="4.99647">
        <ele>301.163</ele>
        <time>2012-08-21T10:11:20Z</time>
      </trkpt>
      <trkpt lat="47.28867" lon="4.99668">
        <ele>299.013</ele>
        <time>2012-08-21T10:11:31Z</time>
      </trkpt>
      <trkpt lat="47.28865" lon="4.9969">
        <ele>296.468</ele>
        <time>2012-08-21T10:11:42Z</time>
      </trkpt>
      <trkpt lat="47.28863" lon="4.9971">
        <ele>293.256</ele>
        <time>2012-08-21T10:11:53Z</time>
      </trkpt>
      <trkpt lat="47.2886" lon="4.9973">
        <ele>290.122</ele>
        <time>2012-08-21T10:12:04Z</time>
      </trkpt>
      <trkpt lat="47.28858" lon="4.99752">
        <ele>286.651</ele>
        <time>2012-08-21T10:12:15Z</time>
      </trkpt>
      <trkpt lat="47.28855" lon="4.99775">
        <ele>284.977</ele>
        <time>2012-08-21T10:12:26Z</time>
      </trkpt>
      <trkpt lat="47.28855" lon="4.99797">
        <ele>282.287</ele>
        <time>2012-08-21T10:12:37Z</time>
      </trkpt>
      <trkpt lat="47.28852" lon="4.99818">
        <ele>280.077</ele>
        <time>2012-08-21T10:12:48Z</time>
      </trkpt>
      <trkpt lat="47.2885" lon="4.9984">
        <ele>281.067</ele>
        <time>2012-08-21T10:12:59Z</time>
      </trkpt>
      <trkpt lat="47.28862" lon="4.99852">
        <ele>281.553</ele>
        <time>2012-08-21T10:13:10Z</time>
      </trkpt>
      <trkpt lat="47.28875" lon="4.99857">
        <ele>283.456</ele>
        <time>2012-08-21T10:13:21Z</time>
      </trkpt>
      <trkpt lat="47.2889" lon="4.99863">
        <ele>284.719</ele>
        <time>2012-08-21T10:13:32Z</time>
      </trkpt>
      <trkpt lat="47.28903" lon="4.9987">
        <ele>283.77</ele>
        <time>2012-08-21T10:13:43Z</time>
      </trkpt>
      <trkpt lat="47.28918" lon="4.99877">
        <ele>283.704</ele>
        <time>2012-08-21T10:13:54Z</time>
      </trkpt>
      <trkpt lat="47.28935" lon="4.99882">
        <ele>281.083</ele>
        <time>2012-08-21T10:14:05Z</time>
      </trkpt>
      <trkpt lat="47.28952" lon="4.99888">
        <ele>279.252</ele>
        <time>2012-08-21T10:14:16Z</time>
      </trkpt>
      <trkpt lat="47.28968" lon="4.99897">
        <ele>279.151</ele>
        <time>2012-08-21T10:14:27Z</time>
      </trkpt>
      <trkpt lat="47.28983" lon="4.99905">
        <ele>278.307</ele>
        <time>2012-08-21T10:14:38Z</time>
      </trkpt>
      <trkpt lat="47.28997" lon="4.99917">
        <ele>279.141</ele>
        <time>2012-08-21T10:14:49Z</time>
      </trkpt>
      <trkpt lat="47.29012" lon="4.99928">
        <ele>279.014</ele>
        <time>2012-08-21T10:15:00Z</time>
      </trkpt>
      <trkpt lat="47.2902" lon="4.99935">
        <ele>278.268</ele>
        <time>2012-08-21T10:15:11Z</time>
      </trkpt>
      <trkpt lat="47.29035" lon="4.99943">
        <ele>277.143</ele>
        <time>2012-08-21T10:15:22Z</time>
      </trkpt>
      <trkpt lat="47.2905" lon="4.99952">
        <ele>277.304</ele>
        <time>2012-08-21T10:15:33Z</time>
      </trkpt>
      <trkpt lat="47.2906" lon="4.99958">
        <ele>277.199</ele>
        <time>2012-08-21T10:15:44Z</time>
      </trkpt>
      <trkpt lat="47.29073" lon="4.99968">
        <ele>277.51</ele>
        <time>2012-08-21T10:15:55Z</time>
      </trkpt>
      <trkpt lat="47.29082" lon="4.99985">
        <ele>278.074</ele>
        <time>2012-08-21T10:16:06Z</time>
      </trkpt>
      <trkpt lat="47.29078" lon="5.00003">
        <ele>279.574</ele>
        <time>2012-08-21T10:16:17Z</time>
      </trkpt>
      <trkpt lat="47.29075" lon="5.00022">
        <ele>280.322</ele>
        <time>2012-08-21T10:16:28Z</time>
      </trkpt>
      <trkpt lat="47.29072" lon="5.0004">
        <ele>283.415</ele>
        <time>2012-08-21T10:16:39Z</time>
      </trkpt>
      <trkpt lat="47.29063" lon="5.00057">
        <ele>288.159</ele>
        <time>2012-08-21T10:16:50Z</time>
      </trkpt>
      <trkpt lat="47.29058" lon="5.00082">
        <ele>289.804</ele>
        <time>2012-08-21T10:17:01Z</time>
      </trkpt>
      <trkpt lat="47.29053" lon="5.00103">
        <ele>291.615</ele>
        <time>2012-08-21T10:17:12Z</time>
      </trkpt>
      <trkpt lat="47.29048" lon="5.00125">
        <ele>291.969</ele>
        <time>2012-08-21T10:17:23Z</time>
      </trkpt>
      <trkpt lat="47.29042" lon="5.0014">
        <ele>294.294</ele>
        <time>2012-08-21T10:17:34Z</time>
      </trkpt>
      <trkpt lat="47.29042" lon="5.00142">
        <ele>293.587</ele>
        <time>2012-08-21T10:17:45Z</time>
      </trkpt>
      <trkpt lat="47.29042" lon="5.00143">
        <ele>293.158</ele>
        <time>2012-08-21T10:17:56Z</time>
      </trkpt>
      <trkpt lat="47.29042" lon="5.00143">
        <ele>293.158</ele>
        <time>2012-08-21T10:18:07Z</time>
      </trkpt>
      <trkpt lat="47.29042" lon="5.00143">
        <ele>292.965</ele>
        <time>2012-08-21T10:18:18Z</time>
      </trkpt>
      <trkpt lat="47.29042" lon="5.00143">
        <ele>292.991</ele>
        <time>2012-08-21T10:18:29Z</time>
      </trkpt>
      <trkpt lat="47.29042" lon="5.00145">
        <ele>292.86</ele>
        <time>2012-08-21T10:18:40Z</time>
      </trkpt>
      <trkpt lat="47.2905" lon="5.0015">
        <ele>292.21</ele>
        <time>2012-08-21T10:18:51Z</time>
      </trkpt>
      <trkpt lat="47.29062" lon="5.0016">
        <ele>292.458</ele>
        <time>2012-08-21T10:19:02Z</time>
      </trkpt>
      <trkpt lat="47.29077" lon="5.00165">
        <ele>292.31</ele>
        <time>2012-08-21T10:19:13Z</time>
      </trkpt>
      <trkpt lat="47.2909" lon="5.0017">
        <ele>292.413</ele>
        <time>2012-08-21T10:19:24Z</time>
      </trkpt>
      <trkpt lat="47.29103" lon="5.00175">
        <ele>272.4</ele>
        <time>2012-08-21T10:19:35Z</time>
      </trkpt>
      <trkpt lat="47.29117" lon="5.0018">
        <ele>272.5</ele>
        <time>2012-08-21T10:19:46Z</time>
      </trkpt>
      <trkpt lat="47.29132" lon="5.00185">
        <ele>294.679</ele>
        <time>2012-08-21T10:19:57Z</time>
      </trkpt>
      <trkpt lat="47.29145" lon="5.0019">
        <ele>293.724</ele>
        <time>2012-08-21T10:20:08Z</time>
      </trkpt>
      <trkpt lat="47.29155" lon="5.00192">
        <ele>293.956</ele>
        <time>2012-08-21T10:20:19Z</time>
      </trkpt>
      <trkpt lat="47.29155" lon="5.00208">
        <ele>296.141</ele>
        <time>2012-08-21T10:20:30Z</time>
      </trkpt>
      <trkpt lat="47.29147" lon="5.00223">
        <ele>298.57</ele>
        <time>2012-08-21T10:20:41Z</time>
      </trkpt>
      <trkpt lat="47.29137" lon="5.0024">
        <ele>299.042</ele>
        <time>2012-08-21T10:20:52Z</time>
      </trkpt>
      <trkpt lat="47.2914" lon="5.00258">
        <ele>269.7</ele>
        <time>2012-08-21T10:21:03Z</time>
      </trkpt>
    </trkseg>
  </trk>
</gpx>